<?xml version="1.0" encoding="UTF-8" standalone="no" ?>
<gpx xmlns="http://www.topografix.com/GPX/1/1" xmlns:xsi="http://www.w3.org/2001/XMLSchema-instance" xsi:schemaLocation="http://www.topografix.com/GPX/1/1 http://www.topografix.com/GPX/1/1/gpx.xsd" version="1.1" creator="VisuGPX - https://www.visugpx.com">
  <metadata>
    <name>Corrençon Tête des Chaudières </name>
    <desc><![CDATA[File with points/tracks from Locus Map/3.32.2]]></desc>
  </metadata>
  <trk>
    <name><![CDATA[F38250 Corrençon Tête des Chaudières LCV]]></name>
    <trkseg>
      <trkpt lat="45.02024" lon="5.52919">
        <ele>1233.25</ele>
        <time>2018-09-13T06:54:05.000Z</time>
      </trkpt>
      <trkpt lat="45.02016" lon="5.52924">
        <ele>1234</ele>
        <time>2018-09-13T06:54:17.000Z</time>
      </trkpt>
      <trkpt lat="45.02007" lon="5.52931">
        <ele>1234.55</ele>
        <time>2018-09-13T06:54:31.000Z</time>
      </trkpt>
      <trkpt lat="45.01998" lon="5.52935">
        <ele>1234.96</ele>
        <time>2018-09-13T06:54:42.000Z</time>
      </trkpt>
      <trkpt lat="45.01988" lon="5.52941">
        <ele>1235.12</ele>
        <time>2018-09-13T06:54:52.000Z</time>
      </trkpt>
      <trkpt lat="45.01979" lon="5.52941">
        <ele>1235.18</ele>
        <time>2018-09-13T06:55:03.000Z</time>
      </trkpt>
      <trkpt lat="45.01967" lon="5.5294">
        <ele>1235.07</ele>
        <time>2018-09-13T06:55:13.000Z</time>
      </trkpt>
      <trkpt lat="45.01957" lon="5.52936">
        <ele>1234.96</ele>
        <time>2018-09-13T06:55:23.000Z</time>
      </trkpt>
      <trkpt lat="45.01948" lon="5.52936">
        <ele>1234.76</ele>
        <time>2018-09-13T06:55:33.000Z</time>
      </trkpt>
      <trkpt lat="45.01937" lon="5.52938">
        <ele>1234.46</ele>
        <time>2018-09-13T06:55:43.000Z</time>
      </trkpt>
      <trkpt lat="45.01927" lon="5.52941">
        <ele>1234.23</ele>
        <time>2018-09-13T06:55:53.000Z</time>
      </trkpt>
      <trkpt lat="45.01916" lon="5.5294">
        <ele>1234.18</ele>
        <time>2018-09-13T06:56:03.000Z</time>
      </trkpt>
      <trkpt lat="45.01906" lon="5.52937">
        <ele>1234.21</ele>
        <time>2018-09-13T06:56:13.000Z</time>
      </trkpt>
      <trkpt lat="45.01894" lon="5.52934">
        <ele>1234.18</ele>
        <time>2018-09-13T06:56:23.000Z</time>
      </trkpt>
      <trkpt lat="45.01879" lon="5.52929">
        <ele>1234.22</ele>
        <time>2018-09-13T06:56:33.000Z</time>
      </trkpt>
      <trkpt lat="45.0187" lon="5.52923">
        <ele>1234.42</ele>
        <time>2018-09-13T06:56:43.000Z</time>
      </trkpt>
      <trkpt lat="45.01859" lon="5.52922">
        <ele>1234.59</ele>
        <time>2018-09-13T06:56:53.000Z</time>
      </trkpt>
      <trkpt lat="45.01844" lon="5.52921">
        <ele>1235.1</ele>
        <time>2018-09-13T06:57:03.000Z</time>
      </trkpt>
      <trkpt lat="45.01833" lon="5.52927">
        <ele>1235.43</ele>
        <time>2018-09-13T06:57:13.000Z</time>
      </trkpt>
      <trkpt lat="45.01823" lon="5.52933">
        <ele>1235.78</ele>
        <time>2018-09-13T06:57:23.000Z</time>
      </trkpt>
      <trkpt lat="45.01811" lon="5.52937">
        <ele>1236.22</ele>
        <time>2018-09-13T06:57:33.000Z</time>
      </trkpt>
      <trkpt lat="45.01801" lon="5.52942">
        <ele>1236.46</ele>
        <time>2018-09-13T06:57:43.000Z</time>
      </trkpt>
      <trkpt lat="45.0179" lon="5.52949">
        <ele>1236.72</ele>
        <time>2018-09-13T06:57:53.000Z</time>
      </trkpt>
      <trkpt lat="45.0178" lon="5.52956">
        <ele>1237</ele>
        <time>2018-09-13T06:58:03.000Z</time>
      </trkpt>
      <trkpt lat="45.01768" lon="5.52966">
        <ele>1237.44</ele>
        <time>2018-09-13T06:58:13.000Z</time>
      </trkpt>
      <trkpt lat="45.0176" lon="5.52973">
        <ele>1237.94</ele>
        <time>2018-09-13T06:58:24.000Z</time>
      </trkpt>
      <trkpt lat="45.01754" lon="5.52983">
        <ele>1238.14</ele>
        <time>2018-09-13T06:58:35.000Z</time>
      </trkpt>
      <trkpt lat="45.01746" lon="5.52991">
        <ele>1239.04</ele>
        <time>2018-09-13T06:58:45.000Z</time>
      </trkpt>
      <trkpt lat="45.01737" lon="5.52995">
        <ele>1240.91</ele>
        <time>2018-09-13T06:58:56.000Z</time>
      </trkpt>
      <trkpt lat="45.01728" lon="5.52998">
        <ele>1243.24</ele>
        <time>2018-09-13T06:59:09.000Z</time>
      </trkpt>
      <trkpt lat="45.01719" lon="5.52998">
        <ele>1246.02</ele>
        <time>2018-09-13T06:59:21.000Z</time>
      </trkpt>
      <trkpt lat="45.01709" lon="5.53001">
        <ele>1248.8</ele>
        <time>2018-09-13T06:59:35.000Z</time>
      </trkpt>
      <trkpt lat="45.017" lon="5.53006">
        <ele>1251.27</ele>
        <time>2018-09-13T06:59:45.000Z</time>
      </trkpt>
      <trkpt lat="45.01693" lon="5.53015">
        <ele>1252.37</ele>
        <time>2018-09-13T07:00:01.000Z</time>
      </trkpt>
      <trkpt lat="45.01685" lon="5.53022">
        <ele>1253.89</ele>
        <time>2018-09-13T07:00:15.000Z</time>
      </trkpt>
      <trkpt lat="45.01676" lon="5.53022">
        <ele>1256.41</ele>
        <time>2018-09-13T07:00:27.000Z</time>
      </trkpt>
      <trkpt lat="45.01667" lon="5.53027">
        <ele>1257.97</ele>
        <time>2018-09-13T07:00:41.000Z</time>
      </trkpt>
      <trkpt lat="45.01658" lon="5.5303">
        <ele>1259.67</ele>
        <time>2018-09-13T07:00:51.000Z</time>
      </trkpt>
      <trkpt lat="45.01648" lon="5.53031">
        <ele>1261.82</ele>
        <time>2018-09-13T07:01:02.000Z</time>
      </trkpt>
      <trkpt lat="45.01639" lon="5.53033">
        <ele>1263.76</ele>
        <time>2018-09-13T07:01:15.000Z</time>
      </trkpt>
      <trkpt lat="45.0163" lon="5.53034">
        <ele>1265.81</ele>
        <time>2018-09-13T07:01:25.000Z</time>
      </trkpt>
      <trkpt lat="45.0162" lon="5.53034">
        <ele>1268.26</ele>
        <time>2018-09-13T07:01:39.000Z</time>
      </trkpt>
      <trkpt lat="45.0161" lon="5.5303">
        <ele>1270.87</ele>
        <time>2018-09-13T07:01:51.000Z</time>
      </trkpt>
      <trkpt lat="45.01601" lon="5.53028">
        <ele>1273.15</ele>
        <time>2018-09-13T07:02:03.000Z</time>
      </trkpt>
      <trkpt lat="45.01592" lon="5.53027">
        <ele>1275.24</ele>
        <time>2018-09-13T07:02:17.000Z</time>
      </trkpt>
      <trkpt lat="45.01581" lon="5.53027">
        <ele>1277.2</ele>
        <time>2018-09-13T07:02:27.000Z</time>
      </trkpt>
      <trkpt lat="45.01572" lon="5.5303">
        <ele>1278.6</ele>
        <time>2018-09-13T07:02:42.000Z</time>
      </trkpt>
      <trkpt lat="45.01564" lon="5.53039">
        <ele>1279.22</ele>
        <time>2018-09-13T07:02:54.000Z</time>
      </trkpt>
      <trkpt lat="45.01554" lon="5.5304">
        <ele>1280.77</ele>
        <time>2018-09-13T07:03:09.000Z</time>
      </trkpt>
      <trkpt lat="45.01546" lon="5.53042">
        <ele>1282.18</ele>
        <time>2018-09-13T07:03:21.000Z</time>
      </trkpt>
      <trkpt lat="45.01537" lon="5.53048">
        <ele>1283.6</ele>
        <time>2018-09-13T07:03:37.000Z</time>
      </trkpt>
      <trkpt lat="45.01527" lon="5.53049">
        <ele>1285.44</ele>
        <time>2018-09-13T07:03:52.000Z</time>
      </trkpt>
      <trkpt lat="45.01519" lon="5.53054">
        <ele>1287.36</ele>
        <time>2018-09-13T07:04:03.000Z</time>
      </trkpt>
      <trkpt lat="45.01512" lon="5.53063">
        <ele>1289.4</ele>
        <time>2018-09-13T07:04:17.000Z</time>
      </trkpt>
      <trkpt lat="45.01504" lon="5.53074">
        <ele>1292.08</ele>
        <time>2018-09-13T07:04:27.000Z</time>
      </trkpt>
      <trkpt lat="45.01496" lon="5.5308">
        <ele>1294.44</ele>
        <time>2018-09-13T07:04:47.000Z</time>
      </trkpt>
      <trkpt lat="45.01487" lon="5.53083">
        <ele>1296.76</ele>
        <time>2018-09-13T07:05:01.000Z</time>
      </trkpt>
      <trkpt lat="45.01479" lon="5.5309">
        <ele>1299.02</ele>
        <time>2018-09-13T07:05:11.000Z</time>
      </trkpt>
      <trkpt lat="45.01474" lon="5.53101">
        <ele>1301.12</ele>
        <time>2018-09-13T07:05:24.000Z</time>
      </trkpt>
      <trkpt lat="45.01467" lon="5.5311">
        <ele>1303.36</ele>
        <time>2018-09-13T07:05:40.000Z</time>
      </trkpt>
      <trkpt lat="45.0146" lon="5.53118">
        <ele>1305.41</ele>
        <time>2018-09-13T07:05:55.000Z</time>
      </trkpt>
      <trkpt lat="45.01451" lon="5.53124">
        <ele>1307.29</ele>
        <time>2018-09-13T07:06:08.000Z</time>
      </trkpt>
      <trkpt lat="45.01441" lon="5.53126">
        <ele>1308.94</ele>
        <time>2018-09-13T07:06:22.000Z</time>
      </trkpt>
      <trkpt lat="45.01432" lon="5.53131">
        <ele>1310.77</ele>
        <time>2018-09-13T07:06:35.000Z</time>
      </trkpt>
      <trkpt lat="45.01423" lon="5.53135">
        <ele>1312.48</ele>
        <time>2018-09-13T07:06:48.000Z</time>
      </trkpt>
      <trkpt lat="45.01414" lon="5.53137">
        <ele>1314.13</ele>
        <time>2018-09-13T07:07:01.000Z</time>
      </trkpt>
      <trkpt lat="45.01405" lon="5.5314">
        <ele>1315.86</ele>
        <time>2018-09-13T07:07:11.000Z</time>
      </trkpt>
      <trkpt lat="45.01395" lon="5.53144">
        <ele>1318</ele>
        <time>2018-09-13T07:07:21.000Z</time>
      </trkpt>
      <trkpt lat="45.01386" lon="5.53146">
        <ele>1319.88</ele>
        <time>2018-09-13T07:07:32.000Z</time>
      </trkpt>
      <trkpt lat="45.01375" lon="5.53148">
        <ele>1321.98</ele>
        <time>2018-09-13T07:07:46.000Z</time>
      </trkpt>
      <trkpt lat="45.01366" lon="5.53151">
        <ele>1323.92</ele>
        <time>2018-09-13T07:07:56.000Z</time>
      </trkpt>
      <trkpt lat="45.01357" lon="5.53151">
        <ele>1325.53</ele>
        <time>2018-09-13T07:08:07.000Z</time>
      </trkpt>
      <trkpt lat="45.01347" lon="5.5315">
        <ele>1327.2</ele>
        <time>2018-09-13T07:08:21.000Z</time>
      </trkpt>
      <trkpt lat="45.01337" lon="5.53149">
        <ele>1328.53</ele>
        <time>2018-09-13T07:08:34.000Z</time>
      </trkpt>
      <trkpt lat="45.01327" lon="5.53148">
        <ele>1329.71</ele>
        <time>2018-09-13T07:08:44.000Z</time>
      </trkpt>
      <trkpt lat="45.01317" lon="5.53151">
        <ele>1330.97</ele>
        <time>2018-09-13T07:08:56.000Z</time>
      </trkpt>
      <trkpt lat="45.01308" lon="5.53151">
        <ele>1331.7</ele>
        <time>2018-09-13T07:09:07.000Z</time>
      </trkpt>
      <trkpt lat="45.01296" lon="5.53153">
        <ele>1332.66</ele>
        <time>2018-09-13T07:09:17.000Z</time>
      </trkpt>
      <trkpt lat="45.01286" lon="5.53151">
        <ele>1333.19</ele>
        <time>2018-09-13T07:09:30.000Z</time>
      </trkpt>
      <trkpt lat="45.01276" lon="5.5315">
        <ele>1333.85</ele>
        <time>2018-09-13T07:09:43.000Z</time>
      </trkpt>
      <trkpt lat="45.01266" lon="5.53149">
        <ele>1334.73</ele>
        <time>2018-09-13T07:09:54.000Z</time>
      </trkpt>
      <trkpt lat="45.01259" lon="5.53141">
        <ele>1335.12</ele>
        <time>2018-09-13T07:10:06.000Z</time>
      </trkpt>
      <trkpt lat="45.0125" lon="5.53138">
        <ele>1336.32</ele>
        <time>2018-09-13T07:10:18.000Z</time>
      </trkpt>
      <trkpt lat="45.01241" lon="5.53136">
        <ele>1338.15</ele>
        <time>2018-09-13T07:10:34.000Z</time>
      </trkpt>
      <trkpt lat="45.01231" lon="5.53142">
        <ele>1340.86</ele>
        <time>2018-09-13T07:10:46.000Z</time>
      </trkpt>
      <trkpt lat="45.01225" lon="5.53153">
        <ele>1343.44</ele>
        <time>2018-09-13T07:11:01.000Z</time>
      </trkpt>
      <trkpt lat="45.01221" lon="5.53165">
        <ele>1345.91</ele>
        <time>2018-09-13T07:11:13.000Z</time>
      </trkpt>
      <trkpt lat="45.01213" lon="5.53173">
        <ele>1349.15</ele>
        <time>2018-09-13T07:11:25.000Z</time>
      </trkpt>
      <trkpt lat="45.01207" lon="5.53184">
        <ele>1352.33</ele>
        <time>2018-09-13T07:11:44.000Z</time>
      </trkpt>
      <trkpt lat="45.012" lon="5.53192">
        <ele>1355.56</ele>
        <time>2018-09-13T07:11:57.000Z</time>
      </trkpt>
      <trkpt lat="45.01192" lon="5.53202">
        <ele>1358.79</ele>
        <time>2018-09-13T07:12:12.000Z</time>
      </trkpt>
      <trkpt lat="45.01183" lon="5.53204">
        <ele>1361.36</ele>
        <time>2018-09-13T07:12:45.000Z</time>
      </trkpt>
      <trkpt lat="45.01174" lon="5.53207">
        <ele>1363.83</ele>
        <time>2018-09-13T07:12:56.000Z</time>
      </trkpt>
      <trkpt lat="45.01165" lon="5.53208">
        <ele>1365.94</ele>
        <time>2018-09-13T07:13:13.000Z</time>
      </trkpt>
      <trkpt lat="45.01156" lon="5.53208">
        <ele>1367.68</ele>
        <time>2018-09-13T07:13:28.000Z</time>
      </trkpt>
      <trkpt lat="45.01146" lon="5.53209">
        <ele>1369.56</ele>
        <time>2018-09-13T07:13:42.000Z</time>
      </trkpt>
      <trkpt lat="45.01136" lon="5.53206">
        <ele>1370.98</ele>
        <time>2018-09-13T07:14:01.000Z</time>
      </trkpt>
      <trkpt lat="45.01127" lon="5.5321">
        <ele>1372.96</ele>
        <time>2018-09-13T07:14:20.000Z</time>
      </trkpt>
      <trkpt lat="45.01117" lon="5.53211">
        <ele>1374.88</ele>
        <time>2018-09-13T07:16:08.000Z</time>
      </trkpt>
      <trkpt lat="45.0111" lon="5.53219">
        <ele>1377.33</ele>
        <time>2018-09-13T07:16:25.000Z</time>
      </trkpt>
      <trkpt lat="45.01101" lon="5.53225">
        <ele>1379.77</ele>
        <time>2018-09-13T07:16:36.000Z</time>
      </trkpt>
      <trkpt lat="45.01093" lon="5.53231">
        <ele>1382.5</ele>
        <time>2018-09-13T07:16:48.000Z</time>
      </trkpt>
      <trkpt lat="45.01085" lon="5.53238">
        <ele>1385.34</ele>
        <time>2018-09-13T07:17:06.000Z</time>
      </trkpt>
      <trkpt lat="45.01076" lon="5.53244">
        <ele>1388.24</ele>
        <time>2018-09-13T07:17:16.000Z</time>
      </trkpt>
      <trkpt lat="45.0107" lon="5.53252">
        <ele>1391.37</ele>
        <time>2018-09-13T07:17:30.000Z</time>
      </trkpt>
      <trkpt lat="45.01061" lon="5.53257">
        <ele>1394.21</ele>
        <time>2018-09-13T07:17:44.000Z</time>
      </trkpt>
      <trkpt lat="45.01054" lon="5.53265">
        <ele>1397.11</ele>
        <time>2018-09-13T07:17:58.000Z</time>
      </trkpt>
      <trkpt lat="45.01046" lon="5.53272">
        <ele>1399.92</ele>
        <time>2018-09-13T07:18:12.000Z</time>
      </trkpt>
      <trkpt lat="45.01042" lon="5.53285">
        <ele>1402.3</ele>
        <time>2018-09-13T07:18:31.000Z</time>
      </trkpt>
      <trkpt lat="45.01039" lon="5.53297">
        <ele>1404.47</ele>
        <time>2018-09-13T07:18:42.000Z</time>
      </trkpt>
      <trkpt lat="45.01031" lon="5.53306">
        <ele>1406.84</ele>
        <time>2018-09-13T07:18:59.000Z</time>
      </trkpt>
      <trkpt lat="45.01022" lon="5.53311">
        <ele>1408.83</ele>
        <time>2018-09-13T07:19:21.000Z</time>
      </trkpt>
      <trkpt lat="45.01014" lon="5.53318">
        <ele>1410.87</ele>
        <time>2018-09-13T07:19:37.000Z</time>
      </trkpt>
      <trkpt lat="45.01007" lon="5.53326">
        <ele>1412.98</ele>
        <time>2018-09-13T07:19:56.000Z</time>
      </trkpt>
      <trkpt lat="45.00999" lon="5.53331">
        <ele>1415.01</ele>
        <time>2018-09-13T07:20:09.000Z</time>
      </trkpt>
      <trkpt lat="45.00989" lon="5.53334">
        <ele>1417.04</ele>
        <time>2018-09-13T07:20:19.000Z</time>
      </trkpt>
      <trkpt lat="45.0098" lon="5.53336">
        <ele>1419.08</ele>
        <time>2018-09-13T07:20:32.000Z</time>
      </trkpt>
      <trkpt lat="45.00971" lon="5.53339">
        <ele>1421.26</ele>
        <time>2018-09-13T07:20:44.000Z</time>
      </trkpt>
      <trkpt lat="45.00962" lon="5.5334">
        <ele>1423.37</ele>
        <time>2018-09-13T07:20:56.000Z</time>
      </trkpt>
      <trkpt lat="45.00953" lon="5.53342">
        <ele>1425.61</ele>
        <time>2018-09-13T07:21:08.000Z</time>
      </trkpt>
      <trkpt lat="45.00944" lon="5.53345">
        <ele>1427.93</ele>
        <time>2018-09-13T07:21:23.000Z</time>
      </trkpt>
      <trkpt lat="45.00936" lon="5.53352">
        <ele>1430.51</ele>
        <time>2018-09-13T07:21:49.000Z</time>
      </trkpt>
      <trkpt lat="45.00927" lon="5.53352">
        <ele>1432.8</ele>
        <time>2018-09-13T07:22:05.000Z</time>
      </trkpt>
      <trkpt lat="45.00917" lon="5.53354">
        <ele>1435.49</ele>
        <time>2018-09-13T07:22:20.000Z</time>
      </trkpt>
      <trkpt lat="45.00908" lon="5.53357">
        <ele>1438.19</ele>
        <time>2018-09-13T07:22:35.000Z</time>
      </trkpt>
      <trkpt lat="45.00898" lon="5.53356">
        <ele>1441.01</ele>
        <time>2018-09-13T07:22:51.000Z</time>
      </trkpt>
      <trkpt lat="45.00888" lon="5.53354">
        <ele>1444.07</ele>
        <time>2018-09-13T07:23:03.000Z</time>
      </trkpt>
      <trkpt lat="45.0088" lon="5.53347">
        <ele>1446.08</ele>
        <time>2018-09-13T07:23:24.000Z</time>
      </trkpt>
      <trkpt lat="45.00871" lon="5.53342">
        <ele>1448.63</ele>
        <time>2018-09-13T07:23:39.000Z</time>
      </trkpt>
      <trkpt lat="45.00864" lon="5.53335">
        <ele>1450.45</ele>
        <time>2018-09-13T07:23:55.000Z</time>
      </trkpt>
      <trkpt lat="45.00854" lon="5.53331">
        <ele>1453.14</ele>
        <time>2018-09-13T07:24:13.000Z</time>
      </trkpt>
      <trkpt lat="45.00846" lon="5.53324">
        <ele>1454.88</ele>
        <time>2018-09-13T07:24:24.000Z</time>
      </trkpt>
      <trkpt lat="45.00837" lon="5.5332">
        <ele>1456.89</ele>
        <time>2018-09-13T07:24:37.000Z</time>
      </trkpt>
      <trkpt lat="45.00828" lon="5.53318">
        <ele>1458.91</ele>
        <time>2018-09-13T07:24:54.000Z</time>
      </trkpt>
      <trkpt lat="45.0082" lon="5.5331">
        <ele>1459.83</ele>
        <time>2018-09-13T07:25:10.000Z</time>
      </trkpt>
      <trkpt lat="45.0081" lon="5.53309">
        <ele>1461.46</ele>
        <time>2018-09-13T07:25:25.000Z</time>
      </trkpt>
      <trkpt lat="45.00801" lon="5.53309">
        <ele>1462.95</ele>
        <time>2018-09-13T07:25:40.000Z</time>
      </trkpt>
      <trkpt lat="45.00792" lon="5.53309">
        <ele>1464.31</ele>
        <time>2018-09-13T07:25:51.000Z</time>
      </trkpt>
      <trkpt lat="45.00783" lon="5.53314">
        <ele>1466.15</ele>
        <time>2018-09-13T07:26:06.000Z</time>
      </trkpt>
      <trkpt lat="45.00774" lon="5.53317">
        <ele>1467.88</ele>
        <time>2018-09-13T07:26:21.000Z</time>
      </trkpt>
      <trkpt lat="45.00765" lon="5.53322">
        <ele>1469.82</ele>
        <time>2018-09-13T07:26:39.000Z</time>
      </trkpt>
      <trkpt lat="45.00757" lon="5.53326">
        <ele>1471.78</ele>
        <time>2018-09-13T07:26:55.000Z</time>
      </trkpt>
      <trkpt lat="45.00747" lon="5.5333">
        <ele>1474.06</ele>
        <time>2018-09-13T07:27:14.000Z</time>
      </trkpt>
      <trkpt lat="45.00738" lon="5.53329">
        <ele>1475.62</ele>
        <time>2018-09-13T07:27:26.000Z</time>
      </trkpt>
      <trkpt lat="45.00729" lon="5.53328">
        <ele>1477.36</ele>
        <time>2018-09-13T07:27:36.000Z</time>
      </trkpt>
      <trkpt lat="45.00719" lon="5.53328">
        <ele>1479.18</ele>
        <time>2018-09-13T07:27:49.000Z</time>
      </trkpt>
      <trkpt lat="45.0071" lon="5.53332">
        <ele>1481.7</ele>
        <time>2018-09-13T07:28:05.000Z</time>
      </trkpt>
      <trkpt lat="45.00701" lon="5.53337">
        <ele>1484.56</ele>
        <time>2018-09-13T07:28:18.000Z</time>
      </trkpt>
      <trkpt lat="45.00692" lon="5.5334">
        <ele>1486.99</ele>
        <time>2018-09-13T07:28:33.000Z</time>
      </trkpt>
      <trkpt lat="45.00682" lon="5.5334">
        <ele>1489</ele>
        <time>2018-09-13T07:28:53.000Z</time>
      </trkpt>
      <trkpt lat="45.00674" lon="5.53344">
        <ele>1491.56</ele>
        <time>2018-09-13T07:29:06.000Z</time>
      </trkpt>
      <trkpt lat="45.00666" lon="5.53352">
        <ele>1494.54</ele>
        <time>2018-09-13T07:29:23.000Z</time>
      </trkpt>
      <trkpt lat="45.00657" lon="5.53355">
        <ele>1497.05</ele>
        <time>2018-09-13T07:29:40.000Z</time>
      </trkpt>
      <trkpt lat="45.00648" lon="5.53354">
        <ele>1498.78</ele>
        <time>2018-09-13T07:29:57.000Z</time>
      </trkpt>
      <trkpt lat="45.00639" lon="5.5335">
        <ele>1500.06</ele>
        <time>2018-09-13T07:30:12.000Z</time>
      </trkpt>
      <trkpt lat="45.0063" lon="5.53349">
        <ele>1501.83</ele>
        <time>2018-09-13T07:30:29.000Z</time>
      </trkpt>
      <trkpt lat="45.00621" lon="5.53345">
        <ele>1502.91</ele>
        <time>2018-09-13T07:30:42.000Z</time>
      </trkpt>
      <trkpt lat="45.00611" lon="5.53343">
        <ele>1504.42</ele>
        <time>2018-09-13T07:30:58.000Z</time>
      </trkpt>
      <trkpt lat="45.00602" lon="5.53345">
        <ele>1506.76</ele>
        <time>2018-09-13T07:31:11.000Z</time>
      </trkpt>
      <trkpt lat="45.00593" lon="5.53345">
        <ele>1508.99</ele>
        <time>2018-09-13T07:31:27.000Z</time>
      </trkpt>
      <trkpt lat="45.00583" lon="5.53346">
        <ele>1511.14</ele>
        <time>2018-09-13T07:31:45.000Z</time>
      </trkpt>
      <trkpt lat="45.00574" lon="5.53346">
        <ele>1513.5</ele>
        <time>2018-09-13T07:31:59.000Z</time>
      </trkpt>
      <trkpt lat="45.00565" lon="5.5335">
        <ele>1516.61</ele>
        <time>2018-09-13T07:32:16.000Z</time>
      </trkpt>
      <trkpt lat="45.00556" lon="5.53356">
        <ele>1520.07</ele>
        <time>2018-09-13T07:32:29.000Z</time>
      </trkpt>
      <trkpt lat="45.00548" lon="5.53363">
        <ele>1523.88</ele>
        <time>2018-09-13T07:32:41.000Z</time>
      </trkpt>
      <trkpt lat="45.00538" lon="5.53362">
        <ele>1525.9</ele>
        <time>2018-09-13T07:32:58.000Z</time>
      </trkpt>
      <trkpt lat="45.00529" lon="5.53362">
        <ele>1527.92</ele>
        <time>2018-09-13T07:33:16.000Z</time>
      </trkpt>
      <trkpt lat="45.0052" lon="5.53366">
        <ele>1530.82</ele>
        <time>2018-09-13T07:33:37.000Z</time>
      </trkpt>
      <trkpt lat="45.00511" lon="5.53366">
        <ele>1532.97</ele>
        <time>2018-09-13T07:34:00.000Z</time>
      </trkpt>
      <trkpt lat="45.00502" lon="5.53366">
        <ele>1535.21</ele>
        <time>2018-09-13T07:34:21.000Z</time>
      </trkpt>
      <trkpt lat="45.00491" lon="5.53365">
        <ele>1537.39</ele>
        <time>2018-09-13T07:34:38.000Z</time>
      </trkpt>
      <trkpt lat="45.00481" lon="5.53368">
        <ele>1540.17</ele>
        <time>2018-09-13T07:35:18.000Z</time>
      </trkpt>
      <trkpt lat="45.00472" lon="5.53369">
        <ele>1542.23</ele>
        <time>2018-09-13T07:35:34.000Z</time>
      </trkpt>
      <trkpt lat="45.00463" lon="5.53368">
        <ele>1544.01</ele>
        <time>2018-09-13T07:35:46.000Z</time>
      </trkpt>
      <trkpt lat="45.00454" lon="5.53365">
        <ele>1545.53</ele>
        <time>2018-09-13T07:35:59.000Z</time>
      </trkpt>
      <trkpt lat="45.00445" lon="5.53362">
        <ele>1547.16</ele>
        <time>2018-09-13T07:36:15.000Z</time>
      </trkpt>
      <trkpt lat="45.00435" lon="5.53364">
        <ele>1550.1</ele>
        <time>2018-09-13T07:36:40.000Z</time>
      </trkpt>
      <trkpt lat="45.00425" lon="5.53362">
        <ele>1553.01</ele>
        <time>2018-09-13T07:37:02.000Z</time>
      </trkpt>
      <trkpt lat="45.00415" lon="5.53359">
        <ele>1555.83</ele>
        <time>2018-09-13T07:37:29.000Z</time>
      </trkpt>
      <trkpt lat="45.00406" lon="5.53364">
        <ele>1560.69</ele>
        <time>2018-09-13T07:37:54.000Z</time>
      </trkpt>
      <trkpt lat="45.00398" lon="5.53371">
        <ele>1565.49</ele>
        <time>2018-09-13T07:38:21.000Z</time>
      </trkpt>
      <trkpt lat="45.00387" lon="5.53372">
        <ele>1571.22</ele>
        <time>2018-09-13T07:38:50.000Z</time>
      </trkpt>
      <trkpt lat="45.00378" lon="5.53375">
        <ele>1576.38</ele>
        <time>2018-09-13T07:39:12.000Z</time>
      </trkpt>
      <trkpt lat="45.0037" lon="5.53383">
        <ele>1582.19</ele>
        <time>2018-09-13T07:39:36.000Z</time>
      </trkpt>
      <trkpt lat="45.00361" lon="5.53385">
        <ele>1587.5</ele>
        <time>2018-09-13T07:40:18.000Z</time>
      </trkpt>
      <trkpt lat="45.00351" lon="5.53386">
        <ele>1592.29</ele>
        <time>2018-09-13T07:40:36.000Z</time>
      </trkpt>
      <trkpt lat="45.00343" lon="5.53382">
        <ele>1596.04</ele>
        <time>2018-09-13T07:41:19.000Z</time>
      </trkpt>
      <trkpt lat="45.00334" lon="5.53376">
        <ele>1599.29</ele>
        <time>2018-09-13T07:41:47.000Z</time>
      </trkpt>
      <trkpt lat="45.00325" lon="5.53374">
        <ele>1603.09</ele>
        <time>2018-09-13T07:42:08.000Z</time>
      </trkpt>
      <trkpt lat="45.00315" lon="5.53378">
        <ele>1608.34</ele>
        <time>2018-09-13T07:42:48.000Z</time>
      </trkpt>
      <trkpt lat="45.00306" lon="5.53377">
        <ele>1612.81</ele>
        <time>2018-09-13T07:43:14.000Z</time>
      </trkpt>
      <trkpt lat="45.00298" lon="5.53385">
        <ele>1618.08</ele>
        <time>2018-09-13T07:43:55.000Z</time>
      </trkpt>
      <trkpt lat="45.00292" lon="5.53394">
        <ele>1623.07</ele>
        <time>2018-09-13T07:44:22.000Z</time>
      </trkpt>
      <trkpt lat="45.00286" lon="5.53405">
        <ele>1627.68</ele>
        <time>2018-09-13T07:44:46.000Z</time>
      </trkpt>
      <trkpt lat="45.00282" lon="5.53417">
        <ele>1631.81</ele>
        <time>2018-09-13T07:45:10.000Z</time>
      </trkpt>
      <trkpt lat="45.00274" lon="5.53423">
        <ele>1636.11</ele>
        <time>2018-09-13T07:45:39.000Z</time>
      </trkpt>
      <trkpt lat="45.00266" lon="5.53431">
        <ele>1639.73</ele>
        <time>2018-09-13T07:46:03.000Z</time>
      </trkpt>
      <trkpt lat="45.00261" lon="5.53441">
        <ele>1642.57</ele>
        <time>2018-09-13T07:46:23.000Z</time>
      </trkpt>
      <trkpt lat="45.00256" lon="5.53451">
        <ele>1644.86</ele>
        <time>2018-09-13T07:46:48.000Z</time>
      </trkpt>
      <trkpt lat="45.0025" lon="5.53462">
        <ele>1646.6</ele>
        <time>2018-09-13T07:47:08.000Z</time>
      </trkpt>
      <trkpt lat="45.00248" lon="5.53475">
        <ele>1648.44</ele>
        <time>2018-09-13T07:47:41.000Z</time>
      </trkpt>
      <trkpt lat="45.00252" lon="5.53487">
        <ele>1650.64</ele>
        <time>2018-09-13T07:47:55.000Z</time>
      </trkpt>
      <trkpt lat="45.00256" lon="5.53499">
        <ele>1652.78</ele>
        <time>2018-09-13T07:48:16.000Z</time>
      </trkpt>
      <trkpt lat="45.00253" lon="5.53511">
        <ele>1655.3</ele>
        <time>2018-09-13T07:48:44.000Z</time>
      </trkpt>
      <trkpt lat="45.00251" lon="5.53525">
        <ele>1658.14</ele>
        <time>2018-09-13T07:58:22.000Z</time>
      </trkpt>
      <trkpt lat="45.00252" lon="5.53539">
        <ele>1661.04</ele>
        <time>2018-09-13T07:58:34.000Z</time>
      </trkpt>
      <trkpt lat="45.00259" lon="5.5355">
        <ele>1663.71</ele>
        <time>2018-09-13T07:58:54.000Z</time>
      </trkpt>
      <trkpt lat="45.00262" lon="5.53562">
        <ele>1666.66</ele>
        <time>2018-09-13T07:59:10.000Z</time>
      </trkpt>
      <trkpt lat="45.00265" lon="5.53575">
        <ele>1670.2</ele>
        <time>2018-09-13T07:59:32.000Z</time>
      </trkpt>
      <trkpt lat="45.00269" lon="5.53587">
        <ele>1673.7</ele>
        <time>2018-09-13T07:59:53.000Z</time>
      </trkpt>
      <trkpt lat="45.0027" lon="5.53601">
        <ele>1678.12</ele>
        <time>2018-09-13T08:00:19.000Z</time>
      </trkpt>
      <trkpt lat="45.00271" lon="5.53615">
        <ele>1683.21</ele>
        <time>2018-09-13T08:00:39.000Z</time>
      </trkpt>
      <trkpt lat="45.00272" lon="5.53628">
        <ele>1687.83</ele>
        <time>2018-09-13T08:01:08.000Z</time>
      </trkpt>
      <trkpt lat="45.00274" lon="5.53641">
        <ele>1692.72</ele>
        <time>2018-09-13T08:01:32.000Z</time>
      </trkpt>
      <trkpt lat="45.0028" lon="5.5365">
        <ele>1695.38</ele>
        <time>2018-09-13T08:02:01.000Z</time>
      </trkpt>
      <trkpt lat="45.00284" lon="5.53662">
        <ele>1699.14</ele>
        <time>2018-09-13T08:02:33.000Z</time>
      </trkpt>
      <trkpt lat="45.00292" lon="5.53674">
        <ele>1701.88</ele>
        <time>2018-09-13T08:02:55.000Z</time>
      </trkpt>
      <trkpt lat="45.00299" lon="5.53683">
        <ele>1703.49</ele>
        <time>2018-09-13T08:03:15.000Z</time>
      </trkpt>
      <trkpt lat="45.00306" lon="5.53691">
        <ele>1705.24</ele>
        <time>2018-09-13T08:03:37.000Z</time>
      </trkpt>
      <trkpt lat="45.00312" lon="5.53702">
        <ele>1708.25</ele>
        <time>2018-09-13T08:03:57.000Z</time>
      </trkpt>
      <trkpt lat="45.00318" lon="5.53711">
        <ele>1710.63</ele>
        <time>2018-09-13T08:04:20.000Z</time>
      </trkpt>
      <trkpt lat="45.00321" lon="5.53723">
        <ele>1715.55</ele>
        <time>2018-09-13T08:04:42.000Z</time>
      </trkpt>
      <trkpt lat="45.00328" lon="5.53731">
        <ele>1717.59</ele>
        <time>2018-09-13T08:05:03.000Z</time>
      </trkpt>
      <trkpt lat="45.00335" lon="5.5374">
        <ele>1720.13</ele>
        <time>2018-09-13T08:05:26.000Z</time>
      </trkpt>
      <trkpt lat="45.00338" lon="5.53752">
        <ele>1724.77</ele>
        <time>2018-09-13T08:05:51.000Z</time>
      </trkpt>
      <trkpt lat="45.00344" lon="5.53763">
        <ele>1728.05</ele>
        <time>2018-09-13T08:06:17.000Z</time>
      </trkpt>
      <trkpt lat="45.00351" lon="5.53771">
        <ele>1729.85</ele>
        <time>2018-09-13T08:06:38.000Z</time>
      </trkpt>
      <trkpt lat="45.00354" lon="5.53784">
        <ele>1734.7</ele>
        <time>2018-09-13T08:07:00.000Z</time>
      </trkpt>
      <trkpt lat="45.0036" lon="5.53793">
        <ele>1736.84</ele>
        <time>2018-09-13T08:07:20.000Z</time>
      </trkpt>
      <trkpt lat="45.00367" lon="5.53802">
        <ele>1738.76</ele>
        <time>2018-09-13T08:07:38.000Z</time>
      </trkpt>
      <trkpt lat="45.00373" lon="5.53813">
        <ele>1742.01</ele>
        <time>2018-09-13T08:07:55.000Z</time>
      </trkpt>
      <trkpt lat="45.0038" lon="5.53821">
        <ele>1743.29</ele>
        <time>2018-09-13T08:08:11.000Z</time>
      </trkpt>
      <trkpt lat="45.00385" lon="5.53833">
        <ele>1746.54</ele>
        <time>2018-09-13T08:08:27.000Z</time>
      </trkpt>
      <trkpt lat="45.00391" lon="5.53843">
        <ele>1749.15</ele>
        <time>2018-09-13T08:08:41.000Z</time>
      </trkpt>
      <trkpt lat="45.00396" lon="5.53854">
        <ele>1751.41</ele>
        <time>2018-09-13T08:08:58.000Z</time>
      </trkpt>
      <trkpt lat="45.00401" lon="5.53865">
        <ele>1754.05</ele>
        <time>2018-09-13T08:09:16.000Z</time>
      </trkpt>
      <trkpt lat="45.00407" lon="5.53875">
        <ele>1756.38</ele>
        <time>2018-09-13T08:09:31.000Z</time>
      </trkpt>
      <trkpt lat="45.00411" lon="5.53887">
        <ele>1759.17</ele>
        <time>2018-09-13T08:09:46.000Z</time>
      </trkpt>
      <trkpt lat="45.00414" lon="5.53899">
        <ele>1762.65</ele>
        <time>2018-09-13T08:10:02.000Z</time>
      </trkpt>
      <trkpt lat="45.00419" lon="5.5391">
        <ele>1764.97</ele>
        <time>2018-09-13T08:10:14.000Z</time>
      </trkpt>
      <trkpt lat="45.00424" lon="5.53921">
        <ele>1767.09</ele>
        <time>2018-09-13T08:10:33.000Z</time>
      </trkpt>
      <trkpt lat="45.00428" lon="5.53933">
        <ele>1769.75</ele>
        <time>2018-09-13T08:10:46.000Z</time>
      </trkpt>
      <trkpt lat="45.00433" lon="5.53945">
        <ele>1772.24</ele>
        <time>2018-09-13T08:10:58.000Z</time>
      </trkpt>
      <trkpt lat="45.00439" lon="5.53955">
        <ele>1773.73</ele>
        <time>2018-09-13T08:11:10.000Z</time>
      </trkpt>
      <trkpt lat="45.00445" lon="5.53965">
        <ele>1775.13</ele>
        <time>2018-09-13T08:11:23.000Z</time>
      </trkpt>
      <trkpt lat="45.00452" lon="5.53974">
        <ele>1775.58</ele>
        <time>2018-09-13T08:11:36.000Z</time>
      </trkpt>
      <trkpt lat="45.00456" lon="5.53986">
        <ele>1778.46</ele>
        <time>2018-09-13T08:11:49.000Z</time>
      </trkpt>
      <trkpt lat="45.00463" lon="5.53996">
        <ele>1779.29</ele>
        <time>2018-09-13T08:12:03.000Z</time>
      </trkpt>
      <trkpt lat="45.00467" lon="5.54008">
        <ele>1781.54</ele>
        <time>2018-09-13T08:12:15.000Z</time>
      </trkpt>
      <trkpt lat="45.00471" lon="5.5402">
        <ele>1783.85</ele>
        <time>2018-09-13T08:12:28.000Z</time>
      </trkpt>
      <trkpt lat="45.00475" lon="5.54032">
        <ele>1785.96</ele>
        <time>2018-09-13T08:12:41.000Z</time>
      </trkpt>
      <trkpt lat="45.00476" lon="5.54045">
        <ele>1788.8</ele>
        <time>2018-09-13T08:12:58.000Z</time>
      </trkpt>
      <trkpt lat="45.00478" lon="5.54058">
        <ele>1790.88</ele>
        <time>2018-09-13T08:13:15.000Z</time>
      </trkpt>
      <trkpt lat="45.0047" lon="5.54064">
        <ele>1795.21</ele>
        <time>2018-09-13T08:14:51.000Z</time>
      </trkpt>
      <trkpt lat="45.00462" lon="5.54057">
        <ele>1796.81</ele>
        <time>2018-09-13T08:15:14.000Z</time>
      </trkpt>
      <trkpt lat="45.00453" lon="5.54054">
        <ele>1799.4</ele>
        <time>2018-09-13T08:15:29.000Z</time>
      </trkpt>
      <trkpt lat="45.00444" lon="5.54048">
        <ele>1800.98</ele>
        <time>2018-09-13T08:15:43.000Z</time>
      </trkpt>
      <trkpt lat="45.00436" lon="5.54042">
        <ele>1802.25</ele>
        <time>2018-09-13T08:15:53.000Z</time>
      </trkpt>
      <trkpt lat="45.00427" lon="5.54037">
        <ele>1803.78</ele>
        <time>2018-09-13T08:16:08.000Z</time>
      </trkpt>
      <trkpt lat="45.00418" lon="5.54033">
        <ele>1805.61</ele>
        <time>2018-09-13T08:16:24.000Z</time>
      </trkpt>
      <trkpt lat="45.0041" lon="5.54028">
        <ele>1806.65</ele>
        <time>2018-09-13T08:16:44.000Z</time>
      </trkpt>
      <trkpt lat="45.00401" lon="5.54022">
        <ele>1808.24</ele>
        <time>2018-09-13T08:16:59.000Z</time>
      </trkpt>
      <trkpt lat="45.00393" lon="5.54019">
        <ele>1811.04</ele>
        <time>2018-09-13T08:17:21.000Z</time>
      </trkpt>
      <trkpt lat="45.00385" lon="5.54012">
        <ele>1812.51</ele>
        <time>2018-09-13T08:17:40.000Z</time>
      </trkpt>
      <trkpt lat="45.00376" lon="5.54009">
        <ele>1815.58</ele>
        <time>2018-09-13T08:17:55.000Z</time>
      </trkpt>
      <trkpt lat="45.00366" lon="5.54006">
        <ele>1818.54</ele>
        <time>2018-09-13T08:18:12.000Z</time>
      </trkpt>
      <trkpt lat="45.00358" lon="5.54003">
        <ele>1820.88</ele>
        <time>2018-09-13T08:18:32.000Z</time>
      </trkpt>
      <trkpt lat="45.00348" lon="5.54004">
        <ele>1823.93</ele>
        <time>2018-09-13T08:18:55.000Z</time>
      </trkpt>
      <trkpt lat="45.0034" lon="5.54009">
        <ele>1826.92</ele>
        <time>2018-09-13T08:19:17.000Z</time>
      </trkpt>
      <trkpt lat="45.00332" lon="5.54016">
        <ele>1828.87</ele>
        <time>2018-09-13T08:19:36.000Z</time>
      </trkpt>
      <trkpt lat="45.00324" lon="5.54024">
        <ele>1829.94</ele>
        <time>2018-09-13T08:19:52.000Z</time>
      </trkpt>
      <trkpt lat="45.00315" lon="5.54024">
        <ele>1829.95</ele>
        <time>2018-09-13T08:20:05.000Z</time>
      </trkpt>
      <trkpt lat="45.00313" lon="5.54037">
        <ele>1829.72</ele>
        <time>2018-09-13T08:20:44.000Z</time>
      </trkpt>
      <trkpt lat="45.00311" lon="5.54051">
        <ele>1828.83</ele>
        <time>2018-09-13T08:20:54.000Z</time>
      </trkpt>
      <trkpt lat="45.00308" lon="5.54066">
        <ele>1827.47</ele>
        <time>2018-09-13T08:21:04.000Z</time>
      </trkpt>
      <trkpt lat="45.00302" lon="5.54079">
        <ele>1826.02</ele>
        <time>2018-09-13T08:21:14.000Z</time>
      </trkpt>
      <trkpt lat="45.00296" lon="5.54093">
        <ele>1825.32</ele>
        <time>2018-09-13T08:21:24.000Z</time>
      </trkpt>
      <trkpt lat="45.00294" lon="5.5411">
        <ele>1825.47</ele>
        <time>2018-09-13T08:21:34.000Z</time>
      </trkpt>
      <trkpt lat="45.00287" lon="5.54121">
        <ele>1824.67</ele>
        <time>2018-09-13T08:21:44.000Z</time>
      </trkpt>
      <trkpt lat="45.00276" lon="5.54127">
        <ele>1822.41</ele>
        <time>2018-09-13T08:21:54.000Z</time>
      </trkpt>
      <trkpt lat="45.00267" lon="5.54133">
        <ele>1820.69</ele>
        <time>2018-09-13T08:22:04.000Z</time>
      </trkpt>
      <trkpt lat="45.00261" lon="5.54143">
        <ele>1820.19</ele>
        <time>2018-09-13T08:22:18.000Z</time>
      </trkpt>
      <trkpt lat="45.00256" lon="5.54154">
        <ele>1820.13</ele>
        <time>2018-09-13T08:22:34.000Z</time>
      </trkpt>
      <trkpt lat="45.0025" lon="5.54164">
        <ele>1819.66</ele>
        <time>2018-09-13T08:22:44.000Z</time>
      </trkpt>
      <trkpt lat="45.00245" lon="5.54175">
        <ele>1819.04</ele>
        <time>2018-09-13T08:22:56.000Z</time>
      </trkpt>
      <trkpt lat="45.00243" lon="5.54188">
        <ele>1820.36</ele>
        <time>2018-09-13T08:23:10.000Z</time>
      </trkpt>
      <trkpt lat="45.00245" lon="5.54202">
        <ele>1823.5</ele>
        <time>2018-09-13T08:24:20.000Z</time>
      </trkpt>
      <trkpt lat="45.00244" lon="5.54215">
        <ele>1825.86</ele>
        <time>2018-09-13T08:24:33.000Z</time>
      </trkpt>
      <trkpt lat="45.00239" lon="5.54229">
        <ele>1826.77</ele>
        <time>2018-09-13T08:24:43.000Z</time>
      </trkpt>
      <trkpt lat="45.0023" lon="5.54244">
        <ele>1825.6</ele>
        <time>2018-09-13T08:24:53.000Z</time>
      </trkpt>
      <trkpt lat="45.00222" lon="5.54259">
        <ele>1824.56</ele>
        <time>2018-09-13T08:25:03.000Z</time>
      </trkpt>
      <trkpt lat="45.00214" lon="5.5427">
        <ele>1823.26</ele>
        <time>2018-09-13T08:25:13.000Z</time>
      </trkpt>
      <trkpt lat="45.00206" lon="5.54278">
        <ele>1820.37</ele>
        <time>2018-09-13T08:25:23.000Z</time>
      </trkpt>
      <trkpt lat="45.00196" lon="5.54288">
        <ele>1815.68</ele>
        <time>2018-09-13T08:25:33.000Z</time>
      </trkpt>
      <trkpt lat="45.00191" lon="5.543">
        <ele>1816.26</ele>
        <time>2018-09-13T08:25:43.000Z</time>
      </trkpt>
      <trkpt lat="45.00184" lon="5.54312">
        <ele>1815.44</ele>
        <time>2018-09-13T08:25:53.000Z</time>
      </trkpt>
      <trkpt lat="45.00176" lon="5.5432">
        <ele>1811.83</ele>
        <time>2018-09-13T08:26:04.000Z</time>
      </trkpt>
      <trkpt lat="45.00169" lon="5.54331">
        <ele>1811.56</ele>
        <time>2018-09-13T08:26:14.000Z</time>
      </trkpt>
      <trkpt lat="45.00158" lon="5.54336">
        <ele>1807.31</ele>
        <time>2018-09-13T08:26:24.000Z</time>
      </trkpt>
      <trkpt lat="45.0015" lon="5.54344">
        <ele>1806.84</ele>
        <time>2018-09-13T08:26:34.000Z</time>
      </trkpt>
      <trkpt lat="45.00145" lon="5.54356">
        <ele>1809.64</ele>
        <time>2018-09-13T08:26:44.000Z</time>
      </trkpt>
      <trkpt lat="45.00138" lon="5.54365">
        <ele>1810.63</ele>
        <time>2018-09-13T08:26:57.000Z</time>
      </trkpt>
      <trkpt lat="45.00133" lon="5.54378">
        <ele>1813.9</ele>
        <time>2018-09-13T08:27:07.000Z</time>
      </trkpt>
      <trkpt lat="45.00127" lon="5.54388">
        <ele>1815.08</ele>
        <time>2018-09-13T08:27:18.000Z</time>
      </trkpt>
      <trkpt lat="45.00122" lon="5.544">
        <ele>1817.89</ele>
        <time>2018-09-13T08:27:28.000Z</time>
      </trkpt>
      <trkpt lat="45.00118" lon="5.54412">
        <ele>1820.92</ele>
        <time>2018-09-13T08:27:41.000Z</time>
      </trkpt>
      <trkpt lat="45.00112" lon="5.54422">
        <ele>1822.06</ele>
        <time>2018-09-13T08:27:52.000Z</time>
      </trkpt>
      <trkpt lat="45.00107" lon="5.54433">
        <ele>1823.84</ele>
        <time>2018-09-13T08:28:02.000Z</time>
      </trkpt>
      <trkpt lat="45.00101" lon="5.54443">
        <ele>1825.29</ele>
        <time>2018-09-13T08:28:36.000Z</time>
      </trkpt>
      <trkpt lat="45.00092" lon="5.5445">
        <ele>1824.18</ele>
        <time>2018-09-13T08:28:46.000Z</time>
      </trkpt>
      <trkpt lat="45.00083" lon="5.54457">
        <ele>1824.1</ele>
        <time>2018-09-13T08:28:56.000Z</time>
      </trkpt>
      <trkpt lat="45.00074" lon="5.54461">
        <ele>1823.58</ele>
        <time>2018-09-13T08:29:08.000Z</time>
      </trkpt>
      <trkpt lat="45.00067" lon="5.5447">
        <ele>1825.51</ele>
        <time>2018-09-13T08:29:19.000Z</time>
      </trkpt>
      <trkpt lat="45.00058" lon="5.54468">
        <ele>1823.95</ele>
        <time>2018-09-13T08:29:30.000Z</time>
      </trkpt>
      <trkpt lat="45.0005" lon="5.54463">
        <ele>1822.17</ele>
        <time>2018-09-13T08:29:45.000Z</time>
      </trkpt>
      <trkpt lat="45.0004" lon="5.5446">
        <ele>1821.57</ele>
        <time>2018-09-13T08:29:58.000Z</time>
      </trkpt>
      <trkpt lat="45.00031" lon="5.54464">
        <ele>1822.78</ele>
        <time>2018-09-13T08:30:10.000Z</time>
      </trkpt>
      <trkpt lat="45.00028" lon="5.54477">
        <ele>1825.96</ele>
        <time>2018-09-13T08:30:20.000Z</time>
      </trkpt>
      <trkpt lat="45.00022" lon="5.54486">
        <ele>1827.91</ele>
        <time>2018-09-13T08:30:31.000Z</time>
      </trkpt>
      <trkpt lat="45.00012" lon="5.54497">
        <ele>1829.67</ele>
        <time>2018-09-13T08:30:41.000Z</time>
      </trkpt>
      <trkpt lat="45.00005" lon="5.54507">
        <ele>1831.06</ele>
        <time>2018-09-13T08:30:51.000Z</time>
      </trkpt>
      <trkpt lat="44.99996" lon="5.54511">
        <ele>1829.45</ele>
        <time>2018-09-13T08:31:31.000Z</time>
      </trkpt>
      <trkpt lat="44.99988" lon="5.5452">
        <ele>1828.25</ele>
        <time>2018-09-13T08:31:41.000Z</time>
      </trkpt>
      <trkpt lat="44.99979" lon="5.54514">
        <ele>1822.75</ele>
        <time>2018-09-13T08:31:51.000Z</time>
      </trkpt>
      <trkpt lat="44.9997" lon="5.54518">
        <ele>1819.76</ele>
        <time>2018-09-13T08:32:01.000Z</time>
      </trkpt>
      <trkpt lat="44.99961" lon="5.54521">
        <ele>1817.4</ele>
        <time>2018-09-13T08:32:14.000Z</time>
      </trkpt>
      <trkpt lat="44.99951" lon="5.54524">
        <ele>1814.68</ele>
        <time>2018-09-13T08:32:26.000Z</time>
      </trkpt>
      <trkpt lat="44.99942" lon="5.54532">
        <ele>1815.67</ele>
        <time>2018-09-13T08:32:36.000Z</time>
      </trkpt>
      <trkpt lat="44.99932" lon="5.54539">
        <ele>1816.41</ele>
        <time>2018-09-13T08:32:46.000Z</time>
      </trkpt>
      <trkpt lat="44.99924" lon="5.54548">
        <ele>1820.07</ele>
        <time>2018-09-13T08:32:56.000Z</time>
      </trkpt>
      <trkpt lat="44.99915" lon="5.54555">
        <ele>1823.48</ele>
        <time>2018-09-13T08:33:06.000Z</time>
      </trkpt>
      <trkpt lat="44.99907" lon="5.5456">
        <ele>1824.85</ele>
        <time>2018-09-13T08:33:18.000Z</time>
      </trkpt>
      <trkpt lat="44.99897" lon="5.54561">
        <ele>1824.54</ele>
        <time>2018-09-13T08:33:30.000Z</time>
      </trkpt>
      <trkpt lat="44.99887" lon="5.54562">
        <ele>1824.14</ele>
        <time>2018-09-13T08:33:40.000Z</time>
      </trkpt>
      <trkpt lat="44.99875" lon="5.54565">
        <ele>1824.69</ele>
        <time>2018-09-13T08:33:50.000Z</time>
      </trkpt>
      <trkpt lat="44.99864" lon="5.54568">
        <ele>1825.45</ele>
        <time>2018-09-13T08:34:00.000Z</time>
      </trkpt>
      <trkpt lat="44.99855" lon="5.54572">
        <ele>1827.53</ele>
        <time>2018-09-13T08:34:16.000Z</time>
      </trkpt>
      <trkpt lat="44.99847" lon="5.54576">
        <ele>1829.78</ele>
        <time>2018-09-13T08:34:33.000Z</time>
      </trkpt>
      <trkpt lat="44.99837" lon="5.54575">
        <ele>1828.64</ele>
        <time>2018-09-13T08:34:49.000Z</time>
      </trkpt>
      <trkpt lat="44.99829" lon="5.5458">
        <ele>1831.29</ele>
        <time>2018-09-13T08:35:05.000Z</time>
      </trkpt>
      <trkpt lat="44.99818" lon="5.54579">
        <ele>1830.79</ele>
        <time>2018-09-13T08:35:15.000Z</time>
      </trkpt>
      <trkpt lat="44.99809" lon="5.5458">
        <ele>1831.37</ele>
        <time>2018-09-13T08:35:25.000Z</time>
      </trkpt>
      <trkpt lat="44.998" lon="5.54585">
        <ele>1834.06</ele>
        <time>2018-09-13T08:35:36.000Z</time>
      </trkpt>
      <trkpt lat="44.99792" lon="5.54591">
        <ele>1836.98</ele>
        <time>2018-09-13T08:35:54.000Z</time>
      </trkpt>
      <trkpt lat="44.99783" lon="5.54597">
        <ele>1838.98</ele>
        <time>2018-09-13T08:36:08.000Z</time>
      </trkpt>
      <trkpt lat="44.99775" lon="5.54603">
        <ele>1840.7</ele>
        <time>2018-09-13T08:36:27.000Z</time>
      </trkpt>
      <trkpt lat="44.99766" lon="5.54611">
        <ele>1841.84</ele>
        <time>2018-09-13T08:36:37.000Z</time>
      </trkpt>
      <trkpt lat="44.9976" lon="5.54621">
        <ele>1843.55</ele>
        <time>2018-09-13T08:36:47.000Z</time>
      </trkpt>
      <trkpt lat="44.99752" lon="5.5463">
        <ele>1843.78</ele>
        <time>2018-09-13T08:36:57.000Z</time>
      </trkpt>
      <trkpt lat="44.9975" lon="5.54643">
        <ele>1846.04</ele>
        <time>2018-09-13T08:37:07.000Z</time>
      </trkpt>
      <trkpt lat="44.99747" lon="5.54657">
        <ele>1847.92</ele>
        <time>2018-09-13T08:37:19.000Z</time>
      </trkpt>
      <trkpt lat="44.99742" lon="5.54669">
        <ele>1848.36</ele>
        <time>2018-09-13T08:37:31.000Z</time>
      </trkpt>
      <trkpt lat="44.9974" lon="5.54681">
        <ele>1849.51</ele>
        <time>2018-09-13T08:37:42.000Z</time>
      </trkpt>
      <trkpt lat="44.99734" lon="5.54691">
        <ele>1848.07</ele>
        <time>2018-09-13T08:37:53.000Z</time>
      </trkpt>
      <trkpt lat="44.99726" lon="5.54699">
        <ele>1845.42</ele>
        <time>2018-09-13T08:38:05.000Z</time>
      </trkpt>
      <trkpt lat="44.99718" lon="5.54705">
        <ele>1842.23</ele>
        <time>2018-09-13T08:38:23.000Z</time>
      </trkpt>
      <trkpt lat="44.99709" lon="5.54709">
        <ele>1838.7</ele>
        <time>2018-09-13T08:38:54.000Z</time>
      </trkpt>
      <trkpt lat="44.99702" lon="5.5472">
        <ele>1838.25</ele>
        <time>2018-09-13T08:39:05.000Z</time>
      </trkpt>
      <trkpt lat="44.99694" lon="5.54726">
        <ele>1836.66</ele>
        <time>2018-09-13T08:39:16.000Z</time>
      </trkpt>
      <trkpt lat="44.99688" lon="5.54737">
        <ele>1837.57</ele>
        <time>2018-09-13T08:39:26.000Z</time>
      </trkpt>
      <trkpt lat="44.99678" lon="5.54739">
        <ele>1835.18</ele>
        <time>2018-09-13T08:39:36.000Z</time>
      </trkpt>
      <trkpt lat="44.99668" lon="5.5474">
        <ele>1832.62</ele>
        <time>2018-09-13T08:39:46.000Z</time>
      </trkpt>
      <trkpt lat="44.99657" lon="5.54744">
        <ele>1831.7</ele>
        <time>2018-09-13T08:39:56.000Z</time>
      </trkpt>
      <trkpt lat="44.99643" lon="5.54744">
        <ele>1831.06</ele>
        <time>2018-09-13T08:40:06.000Z</time>
      </trkpt>
      <trkpt lat="44.99631" lon="5.54742">
        <ele>1831.25</ele>
        <time>2018-09-13T08:40:16.000Z</time>
      </trkpt>
      <trkpt lat="44.99618" lon="5.54737">
        <ele>1832.06</ele>
        <time>2018-09-13T08:40:26.000Z</time>
      </trkpt>
      <trkpt lat="44.99608" lon="5.54736">
        <ele>1832.07</ele>
        <time>2018-09-13T08:40:36.000Z</time>
      </trkpt>
      <trkpt lat="44.99602" lon="5.54726">
        <ele>1833.88</ele>
        <time>2018-09-13T08:44:59.000Z</time>
      </trkpt>
      <trkpt lat="44.99596" lon="5.54716">
        <ele>1835.67</ele>
        <time>2018-09-13T08:45:10.000Z</time>
      </trkpt>
      <trkpt lat="44.99591" lon="5.54706">
        <ele>1837.55</ele>
        <time>2018-09-13T08:45:20.000Z</time>
      </trkpt>
      <trkpt lat="44.99584" lon="5.54697">
        <ele>1838.02</ele>
        <time>2018-09-13T08:45:34.000Z</time>
      </trkpt>
      <trkpt lat="44.9958" lon="5.54685">
        <ele>1839.45</ele>
        <time>2018-09-13T08:45:53.000Z</time>
      </trkpt>
      <trkpt lat="44.99578" lon="5.54672">
        <ele>1841.39</ele>
        <time>2018-09-13T08:46:06.000Z</time>
      </trkpt>
      <trkpt lat="44.99573" lon="5.54661">
        <ele>1841.28</ele>
        <time>2018-09-13T08:46:19.000Z</time>
      </trkpt>
      <trkpt lat="44.9957" lon="5.54649">
        <ele>1841.79</ele>
        <time>2018-09-13T08:46:30.000Z</time>
      </trkpt>
      <trkpt lat="44.99565" lon="5.54636">
        <ele>1842.48</ele>
        <time>2018-09-13T08:46:40.000Z</time>
      </trkpt>
      <trkpt lat="44.99562" lon="5.54623">
        <ele>1844.22</ele>
        <time>2018-09-13T08:46:52.000Z</time>
      </trkpt>
      <trkpt lat="44.99559" lon="5.5461">
        <ele>1847.13</ele>
        <time>2018-09-13T08:47:04.000Z</time>
      </trkpt>
      <trkpt lat="44.99555" lon="5.54599">
        <ele>1850.71</ele>
        <time>2018-09-13T08:47:19.000Z</time>
      </trkpt>
      <trkpt lat="44.99551" lon="5.54585">
        <ele>1855.25</ele>
        <time>2018-09-13T08:47:37.000Z</time>
      </trkpt>
      <trkpt lat="44.9955" lon="5.54572">
        <ele>1858.73</ele>
        <time>2018-09-13T08:47:50.000Z</time>
      </trkpt>
      <trkpt lat="44.99547" lon="5.5456">
        <ele>1862.61</ele>
        <time>2018-09-13T08:48:14.000Z</time>
      </trkpt>
      <trkpt lat="44.99544" lon="5.54547">
        <ele>1865.81</ele>
        <time>2018-09-13T08:48:36.000Z</time>
      </trkpt>
      <trkpt lat="44.99544" lon="5.54534">
        <ele>1867.18</ele>
        <time>2018-09-13T08:48:47.000Z</time>
      </trkpt>
      <trkpt lat="44.9954" lon="5.54522">
        <ele>1870.01</ele>
        <time>2018-09-13T08:49:01.000Z</time>
      </trkpt>
      <trkpt lat="44.9954" lon="5.54509">
        <ele>1870.75</ele>
        <time>2018-09-13T08:49:22.000Z</time>
      </trkpt>
      <trkpt lat="44.99536" lon="5.54497">
        <ele>1873.74</ele>
        <time>2018-09-13T08:49:34.000Z</time>
      </trkpt>
      <trkpt lat="44.99534" lon="5.54482">
        <ele>1874.25</ele>
        <time>2018-09-13T08:49:44.000Z</time>
      </trkpt>
      <trkpt lat="44.9953" lon="5.5447">
        <ele>1875.97</ele>
        <time>2018-09-13T08:49:56.000Z</time>
      </trkpt>
      <trkpt lat="44.99526" lon="5.54458">
        <ele>1875.81</ele>
        <time>2018-09-13T08:50:09.000Z</time>
      </trkpt>
      <trkpt lat="44.99524" lon="5.54444">
        <ele>1874.21</ele>
        <time>2018-09-13T08:50:21.000Z</time>
      </trkpt>
      <trkpt lat="44.9952" lon="5.54433">
        <ele>1873.35</ele>
        <time>2018-09-13T08:50:32.000Z</time>
      </trkpt>
      <trkpt lat="44.99514" lon="5.54423">
        <ele>1873.37</ele>
        <time>2018-09-13T08:50:48.000Z</time>
      </trkpt>
      <trkpt lat="44.99506" lon="5.54414">
        <ele>1874.3</ele>
        <time>2018-09-13T08:51:07.000Z</time>
      </trkpt>
      <trkpt lat="44.99503" lon="5.54402">
        <ele>1871.42</ele>
        <time>2018-09-13T08:51:21.000Z</time>
      </trkpt>
      <trkpt lat="44.99495" lon="5.54395">
        <ele>1872.51</ele>
        <time>2018-09-13T08:51:54.000Z</time>
      </trkpt>
      <trkpt lat="44.99486" lon="5.5439">
        <ele>1875.3</ele>
        <time>2018-09-13T08:52:36.000Z</time>
      </trkpt>
      <trkpt lat="44.9948" lon="5.54381">
        <ele>1873.71</ele>
        <time>2018-09-13T08:52:57.000Z</time>
      </trkpt>
      <trkpt lat="44.99471" lon="5.54374">
        <ele>1875.55</ele>
        <time>2018-09-13T08:53:16.000Z</time>
      </trkpt>
      <trkpt lat="44.99463" lon="5.54368">
        <ele>1876.61</ele>
        <time>2018-09-13T08:53:32.000Z</time>
      </trkpt>
      <trkpt lat="44.99455" lon="5.54362">
        <ele>1877.19</ele>
        <time>2018-09-13T08:53:47.000Z</time>
      </trkpt>
      <trkpt lat="44.99446" lon="5.54356">
        <ele>1878.37</ele>
        <time>2018-09-13T08:54:17.000Z</time>
      </trkpt>
      <trkpt lat="44.99437" lon="5.54352">
        <ele>1879.78</ele>
        <time>2018-09-13T08:54:35.000Z</time>
      </trkpt>
      <trkpt lat="44.99429" lon="5.54343">
        <ele>1878.82</ele>
        <time>2018-09-13T08:55:00.000Z</time>
      </trkpt>
      <trkpt lat="44.9942" lon="5.5434">
        <ele>1880.67</ele>
        <time>2018-09-13T08:55:15.000Z</time>
      </trkpt>
      <trkpt lat="44.99411" lon="5.54336">
        <ele>1882.08</ele>
        <time>2018-09-13T08:55:28.000Z</time>
      </trkpt>
      <trkpt lat="44.99402" lon="5.54339">
        <ele>1885.96</ele>
        <time>2018-09-13T08:55:44.000Z</time>
      </trkpt>
      <trkpt lat="44.99393" lon="5.54335">
        <ele>1887.08</ele>
        <time>2018-09-13T08:55:58.000Z</time>
      </trkpt>
      <trkpt lat="44.99384" lon="5.54332">
        <ele>1888.85</ele>
        <time>2018-09-13T08:56:10.000Z</time>
      </trkpt>
      <trkpt lat="44.99374" lon="5.54332">
        <ele>1891.43</ele>
        <time>2018-09-13T08:56:22.000Z</time>
      </trkpt>
      <trkpt lat="44.99364" lon="5.5433">
        <ele>1893.46</ele>
        <time>2018-09-13T08:56:38.000Z</time>
      </trkpt>
      <trkpt lat="44.99355" lon="5.54329">
        <ele>1895.55</ele>
        <time>2018-09-13T08:56:49.000Z</time>
      </trkpt>
      <trkpt lat="44.99346" lon="5.54327">
        <ele>1897.56</ele>
        <time>2018-09-13T08:57:00.000Z</time>
      </trkpt>
      <trkpt lat="44.99337" lon="5.54324">
        <ele>1899.41</ele>
        <time>2018-09-13T08:57:10.000Z</time>
      </trkpt>
      <trkpt lat="44.99328" lon="5.5432">
        <ele>1901.6</ele>
        <time>2018-09-13T08:57:22.000Z</time>
      </trkpt>
      <trkpt lat="44.99319" lon="5.54315">
        <ele>1904.16</ele>
        <time>2018-09-13T08:57:34.000Z</time>
      </trkpt>
      <trkpt lat="44.9931" lon="5.54315">
        <ele>1908.83</ele>
        <time>2018-09-13T08:57:47.000Z</time>
      </trkpt>
      <trkpt lat="44.99301" lon="5.54313">
        <ele>1913.58</ele>
        <time>2018-09-13T08:58:01.000Z</time>
      </trkpt>
      <trkpt lat="44.99292" lon="5.5431">
        <ele>1917.72</ele>
        <time>2018-09-13T08:58:11.000Z</time>
      </trkpt>
      <trkpt lat="44.99282" lon="5.54308">
        <ele>1921.53</ele>
        <time>2018-09-13T08:58:22.000Z</time>
      </trkpt>
      <trkpt lat="44.99273" lon="5.54304">
        <ele>1923.87</ele>
        <time>2018-09-13T08:58:36.000Z</time>
      </trkpt>
      <trkpt lat="44.99263" lon="5.54303">
        <ele>1924.96</ele>
        <time>2018-09-13T08:58:49.000Z</time>
      </trkpt>
      <trkpt lat="44.99254" lon="5.54299">
        <ele>1923.63</ele>
        <time>2018-09-13T08:59:03.000Z</time>
      </trkpt>
      <trkpt lat="44.99246" lon="5.54293">
        <ele>1920.3</ele>
        <time>2018-09-13T08:59:16.000Z</time>
      </trkpt>
      <trkpt lat="44.99238" lon="5.54286">
        <ele>1916.14</ele>
        <time>2018-09-13T08:59:29.000Z</time>
      </trkpt>
      <trkpt lat="44.9923" lon="5.5428">
        <ele>1911.58</ele>
        <time>2018-09-13T08:59:46.000Z</time>
      </trkpt>
      <trkpt lat="44.99221" lon="5.54273">
        <ele>1906.66</ele>
        <time>2018-09-13T09:00:04.000Z</time>
      </trkpt>
      <trkpt lat="44.99219" lon="5.5426">
        <ele>1908.59</ele>
        <time>2018-09-13T09:03:42.000Z</time>
      </trkpt>
      <trkpt lat="44.99213" lon="5.54251">
        <ele>1907.96</ele>
        <time>2018-09-13T09:04:00.000Z</time>
      </trkpt>
      <trkpt lat="44.99209" lon="5.54239">
        <ele>1911.38</ele>
        <time>2018-09-13T09:04:17.000Z</time>
      </trkpt>
      <trkpt lat="44.99204" lon="5.54228">
        <ele>1916.08</ele>
        <time>2018-09-13T09:04:39.000Z</time>
      </trkpt>
      <trkpt lat="44.99202" lon="5.54216">
        <ele>1924.25</ele>
        <time>2018-09-13T09:04:58.000Z</time>
      </trkpt>
      <trkpt lat="44.992" lon="5.54203">
        <ele>1933.32</ele>
        <time>2018-09-13T09:05:15.000Z</time>
      </trkpt>
      <trkpt lat="44.99198" lon="5.54189">
        <ele>1942.98</ele>
        <time>2018-09-13T09:05:37.000Z</time>
      </trkpt>
      <trkpt lat="44.99194" lon="5.54177">
        <ele>1951.16</ele>
        <time>2018-09-13T09:05:59.000Z</time>
      </trkpt>
      <trkpt lat="44.99186" lon="5.54172">
        <ele>1955.21</ele>
        <time>2018-09-13T09:06:14.000Z</time>
      </trkpt>
      <trkpt lat="44.99187" lon="5.54159">
        <ele>1961.68</ele>
        <time>2018-09-13T09:06:34.000Z</time>
      </trkpt>
      <trkpt lat="44.99186" lon="5.54146">
        <ele>1966.94</ele>
        <time>2018-09-13T09:06:58.000Z</time>
      </trkpt>
      <trkpt lat="44.99189" lon="5.54134">
        <ele>1969.59</ele>
        <time>2018-09-13T09:07:19.000Z</time>
      </trkpt>
      <trkpt lat="44.99193" lon="5.54122">
        <ele>1970.84</ele>
        <time>2018-09-13T09:07:36.000Z</time>
      </trkpt>
      <trkpt lat="44.99197" lon="5.5411">
        <ele>1971.01</ele>
        <time>2018-09-13T09:07:58.000Z</time>
      </trkpt>
      <trkpt lat="44.992" lon="5.54098">
        <ele>1971.31</ele>
        <time>2018-09-13T09:08:15.000Z</time>
      </trkpt>
      <trkpt lat="44.99198" lon="5.54085">
        <ele>1974.67</ele>
        <time>2018-09-13T09:08:31.000Z</time>
      </trkpt>
      <trkpt lat="44.99194" lon="5.54072">
        <ele>1978.2</ele>
        <time>2018-09-13T09:08:50.000Z</time>
      </trkpt>
      <trkpt lat="44.99191" lon="5.54059">
        <ele>1980.8</ele>
        <time>2018-09-13T09:09:11.000Z</time>
      </trkpt>
      <trkpt lat="44.99182" lon="5.54053">
        <ele>1982.52</ele>
        <time>2018-09-13T09:09:35.000Z</time>
      </trkpt>
      <trkpt lat="44.99176" lon="5.54043">
        <ele>1982.44</ele>
        <time>2018-09-13T09:09:51.000Z</time>
      </trkpt>
      <trkpt lat="44.99171" lon="5.54031">
        <ele>1981.24</ele>
        <time>2018-09-13T09:10:06.000Z</time>
      </trkpt>
      <trkpt lat="44.99166" lon="5.5402">
        <ele>1979.04</ele>
        <time>2018-09-13T09:10:20.000Z</time>
      </trkpt>
      <trkpt lat="44.99163" lon="5.54008">
        <ele>1977.43</ele>
        <time>2018-09-13T09:10:39.000Z</time>
      </trkpt>
      <trkpt lat="44.99157" lon="5.53996">
        <ele>1974.99</ele>
        <time>2018-09-13T09:10:58.000Z</time>
      </trkpt>
      <trkpt lat="44.99161" lon="5.53984">
        <ele>1979.18</ele>
        <time>2018-09-13T09:11:20.000Z</time>
      </trkpt>
      <trkpt lat="44.99167" lon="5.53974">
        <ele>1984.92</ele>
        <time>2018-09-13T09:11:38.000Z</time>
      </trkpt>
      <trkpt lat="44.99173" lon="5.53964">
        <ele>1990.8</ele>
        <time>2018-09-13T09:11:48.000Z</time>
      </trkpt>
      <trkpt lat="44.99171" lon="5.53951">
        <ele>1993.84</ele>
        <time>2018-09-13T09:12:02.000Z</time>
      </trkpt>
      <trkpt lat="44.99164" lon="5.5394">
        <ele>1991.68</ele>
        <time>2018-09-13T09:12:21.000Z</time>
      </trkpt>
      <trkpt lat="44.99166" lon="5.53927">
        <ele>1996.13</ele>
        <time>2018-09-13T09:12:42.000Z</time>
      </trkpt>
      <trkpt lat="44.99171" lon="5.53915">
        <ele>2001.08</ele>
        <time>2018-09-13T09:12:59.000Z</time>
      </trkpt>
      <trkpt lat="44.99175" lon="5.53903">
        <ele>2003.95</ele>
        <time>2018-09-13T09:13:17.000Z</time>
      </trkpt>
      <trkpt lat="44.99182" lon="5.53896">
        <ele>2006.71</ele>
        <time>2018-09-13T09:13:35.000Z</time>
      </trkpt>
      <trkpt lat="44.99189" lon="5.53888">
        <ele>2007.6</ele>
        <time>2018-09-13T09:13:57.000Z</time>
      </trkpt>
      <trkpt lat="44.99199" lon="5.53887">
        <ele>2008.71</ele>
        <time>2018-09-13T09:14:10.000Z</time>
      </trkpt>
      <trkpt lat="44.99207" lon="5.53885">
        <ele>2008.74</ele>
        <time>2018-09-13T09:14:25.000Z</time>
      </trkpt>
      <trkpt lat="44.99216" lon="5.53889">
        <ele>2009.46</ele>
        <time>2018-09-13T09:14:41.000Z</time>
      </trkpt>
      <trkpt lat="44.99225" lon="5.53888">
        <ele>2009.26</ele>
        <time>2018-09-13T09:15:00.000Z</time>
      </trkpt>
      <trkpt lat="44.99233" lon="5.53881">
        <ele>2008.15</ele>
        <time>2018-09-13T09:15:15.000Z</time>
      </trkpt>
      <trkpt lat="44.99242" lon="5.53878">
        <ele>2007.91</ele>
        <time>2018-09-13T09:15:28.000Z</time>
      </trkpt>
      <trkpt lat="44.99251" lon="5.5388">
        <ele>2008.83</ele>
        <time>2018-09-13T09:16:19.000Z</time>
      </trkpt>
      <trkpt lat="44.99261" lon="5.53877">
        <ele>2009.53</ele>
        <time>2018-09-13T09:16:38.000Z</time>
      </trkpt>
      <trkpt lat="44.99269" lon="5.53871">
        <ele>2009.92</ele>
        <time>2018-09-13T09:17:10.000Z</time>
      </trkpt>
      <trkpt lat="44.99277" lon="5.53864">
        <ele>2010.25</ele>
        <time>2018-09-13T09:17:31.000Z</time>
      </trkpt>
      <trkpt lat="44.99285" lon="5.53858">
        <ele>2010.68</ele>
        <time>2018-09-13T09:17:47.000Z</time>
      </trkpt>
      <trkpt lat="44.99294" lon="5.53859">
        <ele>2012.41</ele>
        <time>2018-09-13T09:18:30.000Z</time>
      </trkpt>
      <trkpt lat="44.99301" lon="5.53852">
        <ele>2011.96</ele>
        <time>2018-09-13T09:18:57.000Z</time>
      </trkpt>
      <trkpt lat="44.99296" lon="5.53841">
        <ele>2009.07</ele>
        <time>2018-09-13T09:27:01.000Z</time>
      </trkpt>
      <trkpt lat="44.99289" lon="5.53832">
        <ele>2006.37</ele>
        <time>2018-09-13T09:28:38.000Z</time>
      </trkpt>
      <trkpt lat="44.99285" lon="5.5382">
        <ele>2003.36</ele>
        <time>2018-09-13T09:28:59.000Z</time>
      </trkpt>
      <trkpt lat="44.99281" lon="5.53809">
        <ele>2000.61</ele>
        <time>2018-09-13T09:29:11.000Z</time>
      </trkpt>
      <trkpt lat="44.99275" lon="5.53799">
        <ele>1998.73</ele>
        <time>2018-09-13T09:29:25.000Z</time>
      </trkpt>
      <trkpt lat="44.99269" lon="5.53789">
        <ele>1997.71</ele>
        <time>2018-09-13T09:29:54.000Z</time>
      </trkpt>
      <trkpt lat="44.9926" lon="5.53784">
        <ele>1998.33</ele>
        <time>2018-09-13T09:30:17.000Z</time>
      </trkpt>
      <trkpt lat="44.99251" lon="5.53781">
        <ele>1999.46</ele>
        <time>2018-09-13T09:30:29.000Z</time>
      </trkpt>
      <trkpt lat="44.9924" lon="5.53775">
        <ele>2000.5</ele>
        <time>2018-09-13T09:30:39.000Z</time>
      </trkpt>
      <trkpt lat="44.99233" lon="5.53764">
        <ele>2000.45</ele>
        <time>2018-09-13T09:30:49.000Z</time>
      </trkpt>
      <trkpt lat="44.99221" lon="5.53761">
        <ele>2001.02</ele>
        <time>2018-09-13T09:30:59.000Z</time>
      </trkpt>
      <trkpt lat="44.99212" lon="5.53758">
        <ele>2001.01</ele>
        <time>2018-09-13T09:31:22.000Z</time>
      </trkpt>
      <trkpt lat="44.99203" lon="5.53757">
        <ele>2001.21</ele>
        <time>2018-09-13T09:31:37.000Z</time>
      </trkpt>
      <trkpt lat="44.99195" lon="5.53749">
        <ele>2000.09</ele>
        <time>2018-09-13T09:32:33.000Z</time>
      </trkpt>
      <trkpt lat="44.99186" lon="5.53747">
        <ele>2000.32</ele>
        <time>2018-09-13T09:32:53.000Z</time>
      </trkpt>
      <trkpt lat="44.99177" lon="5.53744">
        <ele>2000.29</ele>
        <time>2018-09-13T09:33:15.000Z</time>
      </trkpt>
      <trkpt lat="44.9917" lon="5.53753">
        <ele>2003.05</ele>
        <time>2018-09-13T09:33:30.000Z</time>
      </trkpt>
      <trkpt lat="44.99162" lon="5.5376">
        <ele>2005.33</ele>
        <time>2018-09-13T09:33:43.000Z</time>
      </trkpt>
      <trkpt lat="44.99154" lon="5.53768">
        <ele>2007.72</ele>
        <time>2018-09-13T09:33:55.000Z</time>
      </trkpt>
      <trkpt lat="44.99146" lon="5.53775">
        <ele>2010.52</ele>
        <time>2018-09-13T09:34:09.000Z</time>
      </trkpt>
      <trkpt lat="44.99137" lon="5.53773">
        <ele>2013.17</ele>
        <time>2018-09-13T09:34:28.000Z</time>
      </trkpt>
      <trkpt lat="44.99128" lon="5.53772">
        <ele>2015.96</ele>
        <time>2018-09-13T09:34:42.000Z</time>
      </trkpt>
      <trkpt lat="44.99119" lon="5.53767">
        <ele>2017.5</ele>
        <time>2018-09-13T09:34:58.000Z</time>
      </trkpt>
      <trkpt lat="44.99111" lon="5.53762">
        <ele>2018.5</ele>
        <time>2018-09-13T09:35:14.000Z</time>
      </trkpt>
      <trkpt lat="44.99103" lon="5.53756">
        <ele>2018.53</ele>
        <time>2018-09-13T09:35:30.000Z</time>
      </trkpt>
      <trkpt lat="44.99094" lon="5.53749">
        <ele>2018.72</ele>
        <time>2018-09-13T09:35:43.000Z</time>
      </trkpt>
      <trkpt lat="44.99086" lon="5.53745">
        <ele>2020.09</ele>
        <time>2018-09-13T09:35:58.000Z</time>
      </trkpt>
      <trkpt lat="44.99076" lon="5.53744">
        <ele>2022.53</ele>
        <time>2018-09-13T09:36:15.000Z</time>
      </trkpt>
      <trkpt lat="44.99067" lon="5.5374">
        <ele>2025.57</ele>
        <time>2018-09-13T09:36:38.000Z</time>
      </trkpt>
      <trkpt lat="44.99059" lon="5.53734">
        <ele>2027.71</ele>
        <time>2018-09-13T09:37:32.000Z</time>
      </trkpt>
      <trkpt lat="44.9905" lon="5.5373">
        <ele>2031.34</ele>
        <time>2018-09-13T09:37:48.000Z</time>
      </trkpt>
      <trkpt lat="44.99042" lon="5.53723">
        <ele>2032.26</ele>
        <time>2018-09-13T09:38:30.000Z</time>
      </trkpt>
      <trkpt lat="44.99034" lon="5.53719">
        <ele>2035.08</ele>
        <time>2018-09-13T09:38:47.000Z</time>
      </trkpt>
      <trkpt lat="44.99026" lon="5.53711">
        <ele>2034.03</ele>
        <time>2018-09-13T09:39:04.000Z</time>
      </trkpt>
      <trkpt lat="44.99017" lon="5.53707">
        <ele>2035.76</ele>
        <time>2018-09-13T09:39:18.000Z</time>
      </trkpt>
      <trkpt lat="44.99009" lon="5.53702">
        <ele>2034.83</ele>
        <time>2018-09-13T09:39:30.000Z</time>
      </trkpt>
      <trkpt lat="44.99001" lon="5.53696">
        <ele>2033.49</ele>
        <time>2018-09-13T09:39:43.000Z</time>
      </trkpt>
      <trkpt lat="44.98992" lon="5.53691">
        <ele>2032.38</ele>
        <time>2018-09-13T09:39:56.000Z</time>
      </trkpt>
      <trkpt lat="44.98983" lon="5.53691">
        <ele>2034.04</ele>
        <time>2018-09-13T09:40:29.000Z</time>
      </trkpt>
      <trkpt lat="44.98974" lon="5.53694">
        <ele>2035.97</ele>
        <time>2018-09-13T09:40:50.000Z</time>
      </trkpt>
      <trkpt lat="44.98965" lon="5.53699">
        <ele>2037.18</ele>
        <time>2018-09-13T09:41:16.000Z</time>
      </trkpt>
      <trkpt lat="44.9896" lon="5.5371">
        <ele>2037.18</ele>
        <time>2018-09-13T09:41:34.000Z</time>
      </trkpt>
      <trkpt lat="44.98951" lon="5.53709">
        <ele>2034.75</ele>
        <time>2018-09-13T09:42:17.000Z</time>
      </trkpt>
      <trkpt lat="44.98945" lon="5.53699">
        <ele>2035.2</ele>
        <time>2018-09-13T09:44:56.000Z</time>
      </trkpt>
      <trkpt lat="44.98938" lon="5.53688">
        <ele>2036.39</ele>
        <time>2018-09-13T09:45:36.000Z</time>
      </trkpt>
      <trkpt lat="44.98936" lon="5.53675">
        <ele>2037.87</ele>
        <time>2018-09-13T10:25:14.000Z</time>
      </trkpt>
      <trkpt lat="44.98931" lon="5.53664">
        <ele>2038.6</ele>
        <time>2018-09-13T10:25:30.000Z</time>
      </trkpt>
      <trkpt lat="44.98922" lon="5.53661">
        <ele>2039.48</ele>
        <time>2018-09-13T10:25:51.000Z</time>
      </trkpt>
      <trkpt lat="44.98913" lon="5.53656">
        <ele>2039.46</ele>
        <time>2018-09-13T10:26:14.000Z</time>
      </trkpt>
      <trkpt lat="44.98905" lon="5.53649">
        <ele>2038.22</ele>
        <time>2018-09-13T10:26:28.000Z</time>
      </trkpt>
      <trkpt lat="44.98896" lon="5.53643">
        <ele>2036.51</ele>
        <time>2018-09-13T10:26:47.000Z</time>
      </trkpt>
      <trkpt lat="44.98887" lon="5.53639">
        <ele>2034.89</ele>
        <time>2018-09-13T10:27:01.000Z</time>
      </trkpt>
      <trkpt lat="44.98879" lon="5.53633">
        <ele>2032.39</ele>
        <time>2018-09-13T10:27:20.000Z</time>
      </trkpt>
      <trkpt lat="44.98872" lon="5.53625">
        <ele>2029.28</ele>
        <time>2018-09-13T10:27:31.000Z</time>
      </trkpt>
      <trkpt lat="44.98862" lon="5.53621">
        <ele>2027.23</ele>
        <time>2018-09-13T10:27:41.000Z</time>
      </trkpt>
      <trkpt lat="44.98853" lon="5.53617">
        <ele>2025.61</ele>
        <time>2018-09-13T10:27:54.000Z</time>
      </trkpt>
      <trkpt lat="44.98844" lon="5.53611">
        <ele>2023.9</ele>
        <time>2018-09-13T10:28:04.000Z</time>
      </trkpt>
      <trkpt lat="44.98836" lon="5.53608">
        <ele>2023.59</ele>
        <time>2018-09-13T10:28:15.000Z</time>
      </trkpt>
      <trkpt lat="44.98827" lon="5.53604">
        <ele>2023.63</ele>
        <time>2018-09-13T10:28:27.000Z</time>
      </trkpt>
      <trkpt lat="44.9882" lon="5.53613">
        <ele>2025.3</ele>
        <time>2018-09-13T10:28:38.000Z</time>
      </trkpt>
      <trkpt lat="44.98812" lon="5.53606">
        <ele>2025.57</ele>
        <time>2018-09-13T10:28:51.000Z</time>
      </trkpt>
      <trkpt lat="44.98803" lon="5.53602">
        <ele>2026.82</ele>
        <time>2018-09-13T10:29:04.000Z</time>
      </trkpt>
      <trkpt lat="44.98794" lon="5.53599">
        <ele>2028.6</ele>
        <time>2018-09-13T10:29:19.000Z</time>
      </trkpt>
      <trkpt lat="44.98785" lon="5.53597">
        <ele>2030.4</ele>
        <time>2018-09-13T10:29:31.000Z</time>
      </trkpt>
      <trkpt lat="44.98775" lon="5.53593">
        <ele>2032.46</ele>
        <time>2018-09-13T10:29:42.000Z</time>
      </trkpt>
      <trkpt lat="44.98766" lon="5.53589">
        <ele>2034.56</ele>
        <time>2018-09-13T10:29:52.000Z</time>
      </trkpt>
      <trkpt lat="44.98757" lon="5.53588">
        <ele>2035.89</ele>
        <time>2018-09-13T10:30:06.000Z</time>
      </trkpt>
      <trkpt lat="44.98748" lon="5.53585">
        <ele>2036.98</ele>
        <time>2018-09-13T10:30:19.000Z</time>
      </trkpt>
      <trkpt lat="44.98738" lon="5.53578">
        <ele>2038.35</ele>
        <time>2018-09-13T10:30:29.000Z</time>
      </trkpt>
      <trkpt lat="44.9873" lon="5.53571">
        <ele>2038.84</ele>
        <time>2018-09-13T10:30:40.000Z</time>
      </trkpt>
      <trkpt lat="44.98721" lon="5.53567">
        <ele>2038.96</ele>
        <time>2018-09-13T10:30:52.000Z</time>
      </trkpt>
      <trkpt lat="44.98711" lon="5.53563">
        <ele>2038.44</ele>
        <time>2018-09-13T10:31:05.000Z</time>
      </trkpt>
      <trkpt lat="44.98702" lon="5.53562">
        <ele>2038.17</ele>
        <time>2018-09-13T10:31:57.000Z</time>
      </trkpt>
      <trkpt lat="44.98694" lon="5.53555">
        <ele>2034.83</ele>
        <time>2018-09-13T10:32:20.000Z</time>
      </trkpt>
      <trkpt lat="44.98686" lon="5.53552">
        <ele>2032.02</ele>
        <time>2018-09-13T10:32:50.000Z</time>
      </trkpt>
      <trkpt lat="44.98677" lon="5.53551">
        <ele>2029.48</ele>
        <time>2018-09-13T10:33:08.000Z</time>
      </trkpt>
      <trkpt lat="44.98669" lon="5.53543">
        <ele>2023.36</ele>
        <time>2018-09-13T10:33:23.000Z</time>
      </trkpt>
      <trkpt lat="44.98661" lon="5.53535">
        <ele>2016.57</ele>
        <time>2018-09-13T10:34:11.000Z</time>
      </trkpt>
      <trkpt lat="44.98656" lon="5.53525">
        <ele>2009.26</ele>
        <time>2018-09-13T10:34:45.000Z</time>
      </trkpt>
      <trkpt lat="44.9865" lon="5.53515">
        <ele>2003.19</ele>
        <time>2018-09-13T10:34:59.000Z</time>
      </trkpt>
      <trkpt lat="44.98642" lon="5.53508">
        <ele>1999.13</ele>
        <time>2018-09-13T10:35:27.000Z</time>
      </trkpt>
      <trkpt lat="44.98636" lon="5.53498">
        <ele>1995.6</ele>
        <time>2018-09-13T10:35:48.000Z</time>
      </trkpt>
      <trkpt lat="44.98628" lon="5.53489">
        <ele>1993.17</ele>
        <time>2018-09-13T10:36:18.000Z</time>
      </trkpt>
      <trkpt lat="44.98622" lon="5.53479">
        <ele>1990.43</ele>
        <time>2018-09-13T10:36:41.000Z</time>
      </trkpt>
      <trkpt lat="44.98617" lon="5.53469">
        <ele>1987.44</ele>
        <time>2018-09-13T10:37:04.000Z</time>
      </trkpt>
      <trkpt lat="44.98611" lon="5.53458">
        <ele>1984.3</ele>
        <time>2018-09-13T10:37:36.000Z</time>
      </trkpt>
      <trkpt lat="44.98607" lon="5.53446">
        <ele>1980.37</ele>
        <time>2018-09-13T10:37:51.000Z</time>
      </trkpt>
      <trkpt lat="44.98603" lon="5.53435">
        <ele>1976.41</ele>
        <time>2018-09-13T10:38:11.000Z</time>
      </trkpt>
      <trkpt lat="44.98597" lon="5.53424">
        <ele>1973.01</ele>
        <time>2018-09-13T10:38:27.000Z</time>
      </trkpt>
      <trkpt lat="44.98591" lon="5.53414">
        <ele>1970.07</ele>
        <time>2018-09-13T10:38:49.000Z</time>
      </trkpt>
      <trkpt lat="44.98585" lon="5.53404">
        <ele>1967.07</ele>
        <time>2018-09-13T10:39:41.000Z</time>
      </trkpt>
      <trkpt lat="44.98589" lon="5.53392">
        <ele>1961.77</ele>
        <time>2018-09-13T10:40:00.000Z</time>
      </trkpt>
      <trkpt lat="44.98596" lon="5.53383">
        <ele>1956.85</ele>
        <time>2018-09-13T10:40:23.000Z</time>
      </trkpt>
      <trkpt lat="44.98603" lon="5.53374">
        <ele>1951.77</ele>
        <time>2018-09-13T10:40:37.000Z</time>
      </trkpt>
      <trkpt lat="44.98602" lon="5.5336">
        <ele>1945.68</ele>
        <time>2018-09-13T10:41:19.000Z</time>
      </trkpt>
      <trkpt lat="44.98602" lon="5.53347">
        <ele>1940</ele>
        <time>2018-09-13T10:41:36.000Z</time>
      </trkpt>
      <trkpt lat="44.98602" lon="5.53334">
        <ele>1934.35</ele>
        <time>2018-09-13T10:42:10.000Z</time>
      </trkpt>
      <trkpt lat="44.98601" lon="5.53321">
        <ele>1929.04</ele>
        <time>2018-09-13T10:42:31.000Z</time>
      </trkpt>
      <trkpt lat="44.98596" lon="5.5331">
        <ele>1925.33</ele>
        <time>2018-09-13T10:42:47.000Z</time>
      </trkpt>
      <trkpt lat="44.98594" lon="5.53298">
        <ele>1920.48</ele>
        <time>2018-09-13T10:43:13.000Z</time>
      </trkpt>
      <trkpt lat="44.98587" lon="5.53289">
        <ele>1917.45</ele>
        <time>2018-09-13T10:43:29.000Z</time>
      </trkpt>
      <trkpt lat="44.98582" lon="5.53278">
        <ele>1913.39</ele>
        <time>2018-09-13T10:43:49.000Z</time>
      </trkpt>
      <trkpt lat="44.98579" lon="5.53266">
        <ele>1908.71</ele>
        <time>2018-09-13T10:44:12.000Z</time>
      </trkpt>
      <trkpt lat="44.98576" lon="5.53254">
        <ele>1904.18</ele>
        <time>2018-09-13T10:44:42.000Z</time>
      </trkpt>
      <trkpt lat="44.98574" lon="5.53241">
        <ele>1899.27</ele>
        <time>2018-09-13T10:45:03.000Z</time>
      </trkpt>
      <trkpt lat="44.98566" lon="5.53234">
        <ele>1897.42</ele>
        <time>2018-09-13T10:45:23.000Z</time>
      </trkpt>
      <trkpt lat="44.9856" lon="5.53224">
        <ele>1894.37</ele>
        <time>2018-09-13T10:45:36.000Z</time>
      </trkpt>
      <trkpt lat="44.98556" lon="5.53212">
        <ele>1890.74</ele>
        <time>2018-09-13T10:46:02.000Z</time>
      </trkpt>
      <trkpt lat="44.98562" lon="5.53203">
        <ele>1886.41</ele>
        <time>2018-09-13T10:46:40.000Z</time>
      </trkpt>
      <trkpt lat="44.98571" lon="5.53202">
        <ele>1884.3</ele>
        <time>2018-09-13T10:47:23.000Z</time>
      </trkpt>
      <trkpt lat="44.98581" lon="5.53198">
        <ele>1881.13</ele>
        <time>2018-09-13T10:47:53.000Z</time>
      </trkpt>
      <trkpt lat="44.9859" lon="5.53196">
        <ele>1878.81</ele>
        <time>2018-09-13T10:48:21.000Z</time>
      </trkpt>
      <trkpt lat="44.98598" lon="5.53191">
        <ele>1875.69</ele>
        <time>2018-09-13T10:48:38.000Z</time>
      </trkpt>
      <trkpt lat="44.98608" lon="5.53191">
        <ele>1874.39</ele>
        <time>2018-09-13T10:48:57.000Z</time>
      </trkpt>
      <trkpt lat="44.98617" lon="5.53187">
        <ele>1871.48</ele>
        <time>2018-09-13T10:49:13.000Z</time>
      </trkpt>
      <trkpt lat="44.98626" lon="5.53186">
        <ele>1869.94</ele>
        <time>2018-09-13T10:49:27.000Z</time>
      </trkpt>
      <trkpt lat="44.98635" lon="5.53183">
        <ele>1867.81</ele>
        <time>2018-09-13T10:49:53.000Z</time>
      </trkpt>
      <trkpt lat="44.98644" lon="5.5318">
        <ele>1865.45</ele>
        <time>2018-09-13T10:50:05.000Z</time>
      </trkpt>
      <trkpt lat="44.98653" lon="5.53174">
        <ele>1862.05</ele>
        <time>2018-09-13T10:50:24.000Z</time>
      </trkpt>
      <trkpt lat="44.98662" lon="5.53174">
        <ele>1860.75</ele>
        <time>2018-09-13T10:50:38.000Z</time>
      </trkpt>
      <trkpt lat="44.98671" lon="5.53171">
        <ele>1857.77</ele>
        <time>2018-09-13T10:50:53.000Z</time>
      </trkpt>
      <trkpt lat="44.9868" lon="5.53164">
        <ele>1853.97</ele>
        <time>2018-09-13T10:51:05.000Z</time>
      </trkpt>
      <trkpt lat="44.98688" lon="5.53159">
        <ele>1850.62</ele>
        <time>2018-09-13T10:51:23.000Z</time>
      </trkpt>
      <trkpt lat="44.98697" lon="5.53152">
        <ele>1846.98</ele>
        <time>2018-09-13T10:51:37.000Z</time>
      </trkpt>
      <trkpt lat="44.98705" lon="5.53147">
        <ele>1843.88</ele>
        <time>2018-09-13T10:51:48.000Z</time>
      </trkpt>
      <trkpt lat="44.98714" lon="5.53144">
        <ele>1841.65</ele>
        <time>2018-09-13T10:52:00.000Z</time>
      </trkpt>
      <trkpt lat="44.98723" lon="5.5314">
        <ele>1839.14</ele>
        <time>2018-09-13T10:52:14.000Z</time>
      </trkpt>
      <trkpt lat="44.98732" lon="5.53137">
        <ele>1836.65</ele>
        <time>2018-09-13T10:53:08.000Z</time>
      </trkpt>
      <trkpt lat="44.9874" lon="5.53133">
        <ele>1834.24</ele>
        <time>2018-09-13T10:53:26.000Z</time>
      </trkpt>
      <trkpt lat="44.98749" lon="5.53131">
        <ele>1831.79</ele>
        <time>2018-09-13T10:53:42.000Z</time>
      </trkpt>
      <trkpt lat="44.98759" lon="5.53129">
        <ele>1829.34</ele>
        <time>2018-09-13T10:54:00.000Z</time>
      </trkpt>
      <trkpt lat="44.98768" lon="5.53128">
        <ele>1826.75</ele>
        <time>2018-09-13T10:54:17.000Z</time>
      </trkpt>
      <trkpt lat="44.98775" lon="5.53119">
        <ele>1821.58</ele>
        <time>2018-09-13T10:54:35.000Z</time>
      </trkpt>
      <trkpt lat="44.98783" lon="5.53114">
        <ele>1816.95</ele>
        <time>2018-09-13T10:54:52.000Z</time>
      </trkpt>
      <trkpt lat="44.9879" lon="5.53105">
        <ele>1811.18</ele>
        <time>2018-09-13T10:55:07.000Z</time>
      </trkpt>
      <trkpt lat="44.988" lon="5.53103">
        <ele>1806.65</ele>
        <time>2018-09-13T10:55:25.000Z</time>
      </trkpt>
      <trkpt lat="44.98809" lon="5.53099">
        <ele>1802.11</ele>
        <time>2018-09-13T10:55:38.000Z</time>
      </trkpt>
      <trkpt lat="44.98818" lon="5.53095">
        <ele>1797.65</ele>
        <time>2018-09-13T10:55:51.000Z</time>
      </trkpt>
      <trkpt lat="44.98825" lon="5.53087">
        <ele>1792.25</ele>
        <time>2018-09-13T10:56:08.000Z</time>
      </trkpt>
      <trkpt lat="44.98831" lon="5.53077">
        <ele>1787.05</ele>
        <time>2018-09-13T10:56:45.000Z</time>
      </trkpt>
      <trkpt lat="44.98839" lon="5.5307">
        <ele>1783.1</ele>
        <time>2018-09-13T10:57:00.000Z</time>
      </trkpt>
      <trkpt lat="44.98844" lon="5.53059">
        <ele>1778.59</ele>
        <time>2018-09-13T10:57:22.000Z</time>
      </trkpt>
      <trkpt lat="44.9885" lon="5.53049">
        <ele>1774.33</ele>
        <time>2018-09-13T10:57:34.000Z</time>
      </trkpt>
      <trkpt lat="44.98854" lon="5.53037">
        <ele>1770.03</ele>
        <time>2018-09-13T10:58:03.000Z</time>
      </trkpt>
      <trkpt lat="44.98859" lon="5.53026">
        <ele>1765.69</ele>
        <time>2018-09-13T10:58:28.000Z</time>
      </trkpt>
      <trkpt lat="44.98866" lon="5.53017">
        <ele>1761.44</ele>
        <time>2018-09-13T10:58:50.000Z</time>
      </trkpt>
      <trkpt lat="44.98874" lon="5.5301">
        <ele>1757.53</ele>
        <time>2018-09-13T10:59:10.000Z</time>
      </trkpt>
      <trkpt lat="44.98876" lon="5.52997">
        <ele>1752.45</ele>
        <time>2018-09-13T11:00:05.000Z</time>
      </trkpt>
      <trkpt lat="44.98883" lon="5.52986">
        <ele>1746.91</ele>
        <time>2018-09-13T11:01:00.000Z</time>
      </trkpt>
      <trkpt lat="44.98891" lon="5.52979">
        <ele>1742.58</ele>
        <time>2018-09-13T11:02:18.000Z</time>
      </trkpt>
      <trkpt lat="44.98898" lon="5.52971">
        <ele>1738.17</ele>
        <time>2018-09-13T11:03:06.000Z</time>
      </trkpt>
      <trkpt lat="44.98905" lon="5.52959">
        <ele>1732.29</ele>
        <time>2018-09-13T11:03:36.000Z</time>
      </trkpt>
      <trkpt lat="44.98909" lon="5.52946">
        <ele>1726.65</ele>
        <time>2018-09-13T11:04:17.000Z</time>
      </trkpt>
      <trkpt lat="44.98915" lon="5.52937">
        <ele>1722.62</ele>
        <time>2018-09-13T11:04:37.000Z</time>
      </trkpt>
      <trkpt lat="44.9892" lon="5.52925">
        <ele>1718.49</ele>
        <time>2018-09-13T11:04:51.000Z</time>
      </trkpt>
      <trkpt lat="44.98926" lon="5.52915">
        <ele>1715.12</ele>
        <time>2018-09-13T11:05:10.000Z</time>
      </trkpt>
      <trkpt lat="44.9893" lon="5.52903">
        <ele>1711.89</ele>
        <time>2018-09-13T11:05:40.000Z</time>
      </trkpt>
      <trkpt lat="44.98936" lon="5.52893">
        <ele>1709.26</ele>
        <time>2018-09-13T11:05:58.000Z</time>
      </trkpt>
      <trkpt lat="44.9894" lon="5.52881">
        <ele>1706.18</ele>
        <time>2018-09-13T11:08:06.000Z</time>
      </trkpt>
      <trkpt lat="44.98943" lon="5.52868">
        <ele>1702.38</ele>
        <time>2018-09-13T11:08:20.000Z</time>
      </trkpt>
      <trkpt lat="44.98947" lon="5.52856">
        <ele>1698.82</ele>
        <time>2018-09-13T11:08:33.000Z</time>
      </trkpt>
      <trkpt lat="44.98954" lon="5.52847">
        <ele>1695.78</ele>
        <time>2018-09-13T11:08:43.000Z</time>
      </trkpt>
      <trkpt lat="44.98962" lon="5.52839">
        <ele>1692.82</ele>
        <time>2018-09-13T11:08:54.000Z</time>
      </trkpt>
      <trkpt lat="44.98967" lon="5.52829">
        <ele>1689.53</ele>
        <time>2018-09-13T11:09:07.000Z</time>
      </trkpt>
      <trkpt lat="44.98973" lon="5.52819">
        <ele>1686.59</ele>
        <time>2018-09-13T11:09:18.000Z</time>
      </trkpt>
      <trkpt lat="44.9898" lon="5.52809">
        <ele>1683.65</ele>
        <time>2018-09-13T11:09:33.000Z</time>
      </trkpt>
      <trkpt lat="44.9899" lon="5.52806">
        <ele>1681.4</ele>
        <time>2018-09-13T11:10:11.000Z</time>
      </trkpt>
      <trkpt lat="44.98999" lon="5.52803">
        <ele>1679.15</ele>
        <time>2018-09-13T11:11:36.000Z</time>
      </trkpt>
      <trkpt lat="44.99008" lon="5.528">
        <ele>1676.75</ele>
        <time>2018-09-13T11:12:03.000Z</time>
      </trkpt>
      <trkpt lat="44.99018" lon="5.52797">
        <ele>1673.97</ele>
        <time>2018-09-13T11:12:34.000Z</time>
      </trkpt>
      <trkpt lat="44.99027" lon="5.52791">
        <ele>1670.77</ele>
        <time>2018-09-13T11:12:50.000Z</time>
      </trkpt>
      <trkpt lat="44.99035" lon="5.52785">
        <ele>1667.69</ele>
        <time>2018-09-13T11:13:05.000Z</time>
      </trkpt>
      <trkpt lat="44.99044" lon="5.52782">
        <ele>1664.87</ele>
        <time>2018-09-13T11:13:32.000Z</time>
      </trkpt>
      <trkpt lat="44.99051" lon="5.52772">
        <ele>1661.68</ele>
        <time>2018-09-13T11:13:49.000Z</time>
      </trkpt>
      <trkpt lat="44.9906" lon="5.52769">
        <ele>1659</ele>
        <time>2018-09-13T11:14:01.000Z</time>
      </trkpt>
      <trkpt lat="44.99069" lon="5.52767">
        <ele>1656.9</ele>
        <time>2018-09-13T11:14:20.000Z</time>
      </trkpt>
      <trkpt lat="44.99079" lon="5.52765">
        <ele>1655.06</ele>
        <time>2018-09-13T11:14:35.000Z</time>
      </trkpt>
      <trkpt lat="44.99087" lon="5.52762">
        <ele>1653.59</ele>
        <time>2018-09-13T11:14:45.000Z</time>
      </trkpt>
      <trkpt lat="44.99097" lon="5.5276">
        <ele>1652.67</ele>
        <time>2018-09-13T11:15:00.000Z</time>
      </trkpt>
      <trkpt lat="44.99104" lon="5.52752">
        <ele>1650.95</ele>
        <time>2018-09-13T11:15:15.000Z</time>
      </trkpt>
      <trkpt lat="44.99112" lon="5.52743">
        <ele>1649.18</ele>
        <time>2018-09-13T11:15:25.000Z</time>
      </trkpt>
      <trkpt lat="44.99121" lon="5.52738">
        <ele>1648.23</ele>
        <time>2018-09-13T11:15:40.000Z</time>
      </trkpt>
      <trkpt lat="44.9913" lon="5.52737">
        <ele>1647.91</ele>
        <time>2018-09-13T11:15:54.000Z</time>
      </trkpt>
      <trkpt lat="44.99139" lon="5.5273">
        <ele>1646.32</ele>
        <time>2018-09-13T11:18:22.000Z</time>
      </trkpt>
      <trkpt lat="44.99146" lon="5.52721">
        <ele>1644.18</ele>
        <time>2018-09-13T11:18:48.000Z</time>
      </trkpt>
      <trkpt lat="44.99154" lon="5.52713">
        <ele>1641.73</ele>
        <time>2018-09-13T11:19:03.000Z</time>
      </trkpt>
      <trkpt lat="44.99155" lon="5.527">
        <ele>1638.83</ele>
        <time>2018-09-13T11:19:18.000Z</time>
      </trkpt>
      <trkpt lat="44.99157" lon="5.52687">
        <ele>1635.94</ele>
        <time>2018-09-13T11:19:39.000Z</time>
      </trkpt>
      <trkpt lat="44.99166" lon="5.52682">
        <ele>1633.5</ele>
        <time>2018-09-13T11:19:54.000Z</time>
      </trkpt>
      <trkpt lat="44.99173" lon="5.52673">
        <ele>1630.21</ele>
        <time>2018-09-13T11:20:04.000Z</time>
      </trkpt>
      <trkpt lat="44.9918" lon="5.52665">
        <ele>1627.19</ele>
        <time>2018-09-13T11:20:16.000Z</time>
      </trkpt>
      <trkpt lat="44.99187" lon="5.52656">
        <ele>1624.02</ele>
        <time>2018-09-13T11:20:29.000Z</time>
      </trkpt>
      <trkpt lat="44.99196" lon="5.52652">
        <ele>1621.48</ele>
        <time>2018-09-13T11:20:46.000Z</time>
      </trkpt>
      <trkpt lat="44.99203" lon="5.52641">
        <ele>1618.25</ele>
        <time>2018-09-13T11:21:04.000Z</time>
      </trkpt>
      <trkpt lat="44.99197" lon="5.52652">
        <ele>1621.3</ele>
        <time>2018-09-13T11:25:28.000Z</time>
      </trkpt>
      <trkpt lat="44.99189" lon="5.52657">
        <ele>1623.92</ele>
        <time>2018-09-13T11:25:45.000Z</time>
      </trkpt>
      <trkpt lat="44.99181" lon="5.52664">
        <ele>1626.81</ele>
        <time>2018-09-13T11:26:03.000Z</time>
      </trkpt>
      <trkpt lat="44.99174" lon="5.52672">
        <ele>1629.84</ele>
        <time>2018-09-13T11:27:08.000Z</time>
      </trkpt>
      <trkpt lat="44.99166" lon="5.5268">
        <ele>1632.91</ele>
        <time>2018-09-13T11:27:25.000Z</time>
      </trkpt>
      <trkpt lat="44.99158" lon="5.52687">
        <ele>1635.75</ele>
        <time>2018-09-13T11:27:42.000Z</time>
      </trkpt>
      <trkpt lat="44.99151" lon="5.52696">
        <ele>1638.54</ele>
        <time>2018-09-13T11:28:02.000Z</time>
      </trkpt>
      <trkpt lat="44.99149" lon="5.52708">
        <ele>1641.35</ele>
        <time>2018-09-13T11:28:30.000Z</time>
      </trkpt>
      <trkpt lat="44.99147" lon="5.52721">
        <ele>1644.23</ele>
        <time>2018-09-13T11:28:50.000Z</time>
      </trkpt>
      <trkpt lat="44.99143" lon="5.52733">
        <ele>1647.01</ele>
        <time>2018-09-13T11:29:09.000Z</time>
      </trkpt>
      <trkpt lat="44.99151" lon="5.5274">
        <ele>1648.71</ele>
        <time>2018-09-13T11:29:41.000Z</time>
      </trkpt>
      <trkpt lat="44.99159" lon="5.52748">
        <ele>1651.13</ele>
        <time>2018-09-13T11:29:58.000Z</time>
      </trkpt>
      <trkpt lat="44.99168" lon="5.52748">
        <ele>1651.14</ele>
        <time>2018-09-13T11:30:17.000Z</time>
      </trkpt>
      <trkpt lat="44.99176" lon="5.52755">
        <ele>1654.06</ele>
        <time>2018-09-13T11:30:37.000Z</time>
      </trkpt>
      <trkpt lat="44.99184" lon="5.52762">
        <ele>1657.14</ele>
        <time>2018-09-13T11:30:55.000Z</time>
      </trkpt>
      <trkpt lat="44.99192" lon="5.5277">
        <ele>1660.68</ele>
        <time>2018-09-13T11:31:13.000Z</time>
      </trkpt>
      <trkpt lat="44.99201" lon="5.52776">
        <ele>1663.86</ele>
        <time>2018-09-13T11:31:27.000Z</time>
      </trkpt>
      <trkpt lat="44.99208" lon="5.52783">
        <ele>1667.34</ele>
        <time>2018-09-13T11:31:46.000Z</time>
      </trkpt>
      <trkpt lat="44.99217" lon="5.52786">
        <ele>1668.68</ele>
        <time>2018-09-13T11:32:00.000Z</time>
      </trkpt>
      <trkpt lat="44.99225" lon="5.52793">
        <ele>1671.72</ele>
        <time>2018-09-13T11:32:11.000Z</time>
      </trkpt>
      <trkpt lat="44.99233" lon="5.52797">
        <ele>1673.26</ele>
        <time>2018-09-13T11:32:24.000Z</time>
      </trkpt>
      <trkpt lat="44.99243" lon="5.52802">
        <ele>1674.05</ele>
        <time>2018-09-13T11:32:34.000Z</time>
      </trkpt>
      <trkpt lat="44.9925" lon="5.5281">
        <ele>1676.3</ele>
        <time>2018-09-13T11:32:45.000Z</time>
      </trkpt>
      <trkpt lat="44.99256" lon="5.5282">
        <ele>1678.61</ele>
        <time>2018-09-13T11:32:56.000Z</time>
      </trkpt>
      <trkpt lat="44.99264" lon="5.52827">
        <ele>1679.25</ele>
        <time>2018-09-13T11:33:06.000Z</time>
      </trkpt>
      <trkpt lat="44.99272" lon="5.52833">
        <ele>1678.31</ele>
        <time>2018-09-13T11:33:18.000Z</time>
      </trkpt>
      <trkpt lat="44.9928" lon="5.5284">
        <ele>1677.71</ele>
        <time>2018-09-13T11:33:29.000Z</time>
      </trkpt>
      <trkpt lat="44.99289" lon="5.52842">
        <ele>1674.21</ele>
        <time>2018-09-13T11:33:39.000Z</time>
      </trkpt>
      <trkpt lat="44.99298" lon="5.52845">
        <ele>1671.15</ele>
        <time>2018-09-13T11:34:11.000Z</time>
      </trkpt>
      <trkpt lat="44.99307" lon="5.52847">
        <ele>1667.75</ele>
        <time>2018-09-13T11:34:26.000Z</time>
      </trkpt>
      <trkpt lat="44.99315" lon="5.52854">
        <ele>1666.94</ele>
        <time>2018-09-13T11:34:37.000Z</time>
      </trkpt>
      <trkpt lat="44.99324" lon="5.52859">
        <ele>1665.07</ele>
        <time>2018-09-13T11:34:49.000Z</time>
      </trkpt>
      <trkpt lat="44.99333" lon="5.52863">
        <ele>1663.82</ele>
        <time>2018-09-13T11:34:59.000Z</time>
      </trkpt>
      <trkpt lat="44.99342" lon="5.52868">
        <ele>1663.36</ele>
        <time>2018-09-13T11:35:11.000Z</time>
      </trkpt>
      <trkpt lat="44.99349" lon="5.52875">
        <ele>1663.56</ele>
        <time>2018-09-13T11:35:31.000Z</time>
      </trkpt>
      <trkpt lat="44.99359" lon="5.52878">
        <ele>1662.05</ele>
        <time>2018-09-13T11:35:48.000Z</time>
      </trkpt>
      <trkpt lat="44.99368" lon="5.52882">
        <ele>1661.28</ele>
        <time>2018-09-13T11:36:14.000Z</time>
      </trkpt>
      <trkpt lat="44.99377" lon="5.52885">
        <ele>1659.55</ele>
        <time>2018-09-13T11:36:31.000Z</time>
      </trkpt>
      <trkpt lat="44.99386" lon="5.52888">
        <ele>1657.83</ele>
        <time>2018-09-13T11:36:44.000Z</time>
      </trkpt>
      <trkpt lat="44.99395" lon="5.52892">
        <ele>1656.39</ele>
        <time>2018-09-13T11:37:01.000Z</time>
      </trkpt>
      <trkpt lat="44.99399" lon="5.52904">
        <ele>1658.7</ele>
        <time>2018-09-13T11:37:15.000Z</time>
      </trkpt>
      <trkpt lat="44.99402" lon="5.52916">
        <ele>1660.86</ele>
        <time>2018-09-13T11:37:36.000Z</time>
      </trkpt>
      <trkpt lat="44.99412" lon="5.52922">
        <ele>1659.21</ele>
        <time>2018-09-13T11:37:54.000Z</time>
      </trkpt>
      <trkpt lat="44.99421" lon="5.52924">
        <ele>1656.54</ele>
        <time>2018-09-13T11:38:13.000Z</time>
      </trkpt>
      <trkpt lat="44.99431" lon="5.52925">
        <ele>1653.69</ele>
        <time>2018-09-13T11:38:28.000Z</time>
      </trkpt>
      <trkpt lat="44.99437" lon="5.52934">
        <ele>1653.8</ele>
        <time>2018-09-13T11:38:38.000Z</time>
      </trkpt>
      <trkpt lat="44.99446" lon="5.52943">
        <ele>1653.69</ele>
        <time>2018-09-13T11:38:50.000Z</time>
      </trkpt>
      <trkpt lat="44.99448" lon="5.52956">
        <ele>1656.2</ele>
        <time>2018-09-13T11:39:00.000Z</time>
      </trkpt>
      <trkpt lat="44.99451" lon="5.52968">
        <ele>1658.79</ele>
        <time>2018-09-13T11:39:15.000Z</time>
      </trkpt>
      <trkpt lat="44.99451" lon="5.52982">
        <ele>1662.63</ele>
        <time>2018-09-13T11:39:37.000Z</time>
      </trkpt>
      <trkpt lat="44.99453" lon="5.52995">
        <ele>1665.36</ele>
        <time>2018-09-13T11:39:54.000Z</time>
      </trkpt>
      <trkpt lat="44.9946" lon="5.53005">
        <ele>1665.71</ele>
        <time>2018-09-13T11:40:09.000Z</time>
      </trkpt>
      <trkpt lat="44.99465" lon="5.53015">
        <ele>1666.36</ele>
        <time>2018-09-13T11:40:22.000Z</time>
      </trkpt>
      <trkpt lat="44.99474" lon="5.53021">
        <ele>1664.88</ele>
        <time>2018-09-13T11:40:44.000Z</time>
      </trkpt>
      <trkpt lat="44.99481" lon="5.53028">
        <ele>1663.9</ele>
        <time>2018-09-13T11:40:58.000Z</time>
      </trkpt>
      <trkpt lat="44.9949" lon="5.53021">
        <ele>1659.06</ele>
        <time>2018-09-13T11:41:38.000Z</time>
      </trkpt>
      <trkpt lat="44.99498" lon="5.53016">
        <ele>1654.63</ele>
        <time>2018-09-13T11:41:53.000Z</time>
      </trkpt>
      <trkpt lat="44.99505" lon="5.53007">
        <ele>1649.77</ele>
        <time>2018-09-13T11:42:18.000Z</time>
      </trkpt>
      <trkpt lat="44.99505" lon="5.52993">
        <ele>1646.37</ele>
        <time>2018-09-13T11:42:40.000Z</time>
      </trkpt>
      <trkpt lat="44.99513" lon="5.52986">
        <ele>1641.34</ele>
        <time>2018-09-13T11:43:05.000Z</time>
      </trkpt>
      <trkpt lat="44.99509" lon="5.52975">
        <ele>1640.09</ele>
        <time>2018-09-13T11:45:22.000Z</time>
      </trkpt>
      <trkpt lat="44.99507" lon="5.52962">
        <ele>1637.6</ele>
        <time>2018-09-13T11:45:37.000Z</time>
      </trkpt>
      <trkpt lat="44.99505" lon="5.52949">
        <ele>1634.93</ele>
        <time>2018-09-13T11:46:10.000Z</time>
      </trkpt>
      <trkpt lat="44.9951" lon="5.52938">
        <ele>1630.13</ele>
        <time>2018-09-13T11:46:34.000Z</time>
      </trkpt>
      <trkpt lat="44.99519" lon="5.52935">
        <ele>1625.48</ele>
        <time>2018-09-13T11:46:56.000Z</time>
      </trkpt>
      <trkpt lat="44.9952" lon="5.52921">
        <ele>1621.95</ele>
        <time>2018-09-13T11:47:22.000Z</time>
      </trkpt>
      <trkpt lat="44.99525" lon="5.5291">
        <ele>1616.98</ele>
        <time>2018-09-13T11:47:41.000Z</time>
      </trkpt>
      <trkpt lat="44.99533" lon="5.52905">
        <ele>1612.47</ele>
        <time>2018-09-13T11:48:01.000Z</time>
      </trkpt>
      <trkpt lat="44.99544" lon="5.52905">
        <ele>1608.48</ele>
        <time>2018-09-13T11:48:20.000Z</time>
      </trkpt>
      <trkpt lat="44.99552" lon="5.5291">
        <ele>1606.54</ele>
        <time>2018-09-13T11:48:33.000Z</time>
      </trkpt>
      <trkpt lat="44.99561" lon="5.52907">
        <ele>1602.52</ele>
        <time>2018-09-13T11:48:52.000Z</time>
      </trkpt>
      <trkpt lat="44.99569" lon="5.52913">
        <ele>1600.85</ele>
        <time>2018-09-13T11:49:17.000Z</time>
      </trkpt>
      <trkpt lat="44.99576" lon="5.52923">
        <ele>1600.59</ele>
        <time>2018-09-13T11:49:34.000Z</time>
      </trkpt>
      <trkpt lat="44.99586" lon="5.52919">
        <ele>1596.66</ele>
        <time>2018-09-13T11:49:51.000Z</time>
      </trkpt>
      <trkpt lat="44.99594" lon="5.52927">
        <ele>1595.86</ele>
        <time>2018-09-13T11:50:05.000Z</time>
      </trkpt>
      <trkpt lat="44.99602" lon="5.52939">
        <ele>1596</ele>
        <time>2018-09-13T11:50:30.000Z</time>
      </trkpt>
      <trkpt lat="44.99608" lon="5.52949">
        <ele>1596.35</ele>
        <time>2018-09-13T11:50:48.000Z</time>
      </trkpt>
      <trkpt lat="44.99618" lon="5.5295">
        <ele>1593.92</ele>
        <time>2018-09-13T11:51:02.000Z</time>
      </trkpt>
      <trkpt lat="44.99629" lon="5.52951">
        <ele>1591.82</ele>
        <time>2018-09-13T11:51:13.000Z</time>
      </trkpt>
      <trkpt lat="44.99638" lon="5.52949">
        <ele>1589.09</ele>
        <time>2018-09-13T11:51:30.000Z</time>
      </trkpt>
      <trkpt lat="44.99648" lon="5.52949">
        <ele>1587</ele>
        <time>2018-09-13T11:51:49.000Z</time>
      </trkpt>
      <trkpt lat="44.99657" lon="5.52946">
        <ele>1584.07</ele>
        <time>2018-09-13T11:52:01.000Z</time>
      </trkpt>
      <trkpt lat="44.99666" lon="5.52944">
        <ele>1581.16</ele>
        <time>2018-09-13T11:52:15.000Z</time>
      </trkpt>
      <trkpt lat="44.99675" lon="5.52949">
        <ele>1579.92</ele>
        <time>2018-09-13T11:52:33.000Z</time>
      </trkpt>
      <trkpt lat="44.99683" lon="5.52956">
        <ele>1579.22</ele>
        <time>2018-09-13T11:52:45.000Z</time>
      </trkpt>
      <trkpt lat="44.99691" lon="5.52964">
        <ele>1578.96</ele>
        <time>2018-09-13T11:53:00.000Z</time>
      </trkpt>
      <trkpt lat="44.997" lon="5.52967">
        <ele>1576.72</ele>
        <time>2018-09-13T11:53:15.000Z</time>
      </trkpt>
      <trkpt lat="44.99709" lon="5.52968">
        <ele>1573.97</ele>
        <time>2018-09-13T11:53:33.000Z</time>
      </trkpt>
      <trkpt lat="44.99718" lon="5.52972">
        <ele>1571.75</ele>
        <time>2018-09-13T11:53:47.000Z</time>
      </trkpt>
      <trkpt lat="44.99726" lon="5.52979">
        <ele>1569.88</ele>
        <time>2018-09-13T11:54:09.000Z</time>
      </trkpt>
      <trkpt lat="44.99734" lon="5.52986">
        <ele>1567.89</ele>
        <time>2018-09-13T11:54:37.000Z</time>
      </trkpt>
      <trkpt lat="44.9974" lon="5.52997">
        <ele>1566.47</ele>
        <time>2018-09-13T11:54:56.000Z</time>
      </trkpt>
      <trkpt lat="44.99739" lon="5.5301">
        <ele>1567.24</ele>
        <time>2018-09-13T11:58:50.000Z</time>
      </trkpt>
      <trkpt lat="44.99741" lon="5.52998">
        <ele>1566.12</ele>
        <time>2018-09-13T11:59:18.000Z</time>
      </trkpt>
      <trkpt lat="44.99749" lon="5.53004">
        <ele>1563.53</ele>
        <time>2018-09-13T12:00:24.000Z</time>
      </trkpt>
      <trkpt lat="44.99742" lon="5.52995">
        <ele>1565.54</ele>
        <time>2018-09-13T12:02:35.000Z</time>
      </trkpt>
      <trkpt lat="44.99739" lon="5.53009">
        <ele>1567.44</ele>
        <time>2018-09-13T12:08:18.000Z</time>
      </trkpt>
      <trkpt lat="44.99744" lon="5.52998">
        <ele>1565.1</ele>
        <time>2018-09-13T12:12:42.000Z</time>
      </trkpt>
      <trkpt lat="44.99746" lon="5.53011">
        <ele>1564.48</ele>
        <time>2018-09-13T12:13:22.000Z</time>
      </trkpt>
      <trkpt lat="44.99755" lon="5.53006">
        <ele>1561.42</ele>
        <time>2018-09-13T12:13:39.000Z</time>
      </trkpt>
      <trkpt lat="44.99762" lon="5.52997">
        <ele>1558.43</ele>
        <time>2018-09-13T12:13:59.000Z</time>
      </trkpt>
      <trkpt lat="44.99771" lon="5.52992">
        <ele>1554.77</ele>
        <time>2018-09-13T12:14:31.000Z</time>
      </trkpt>
      <trkpt lat="44.99778" lon="5.52984">
        <ele>1551.28</ele>
        <time>2018-09-13T12:14:42.000Z</time>
      </trkpt>
      <trkpt lat="44.99788" lon="5.52985">
        <ele>1547.57</ele>
        <time>2018-09-13T12:14:57.000Z</time>
      </trkpt>
      <trkpt lat="44.99796" lon="5.52991">
        <ele>1544.64</ele>
        <time>2018-09-13T12:15:09.000Z</time>
      </trkpt>
      <trkpt lat="44.99801" lon="5.53003">
        <ele>1543.61</ele>
        <time>2018-09-13T12:15:20.000Z</time>
      </trkpt>
      <trkpt lat="44.99811" lon="5.53003">
        <ele>1540.35</ele>
        <time>2018-09-13T12:15:34.000Z</time>
      </trkpt>
      <trkpt lat="44.99819" lon="5.52999">
        <ele>1537.39</ele>
        <time>2018-09-13T12:15:52.000Z</time>
      </trkpt>
      <trkpt lat="44.99826" lon="5.52988">
        <ele>1534.7</ele>
        <time>2018-09-13T12:16:08.000Z</time>
      </trkpt>
      <trkpt lat="44.9983" lon="5.52976">
        <ele>1532.62</ele>
        <time>2018-09-13T12:16:20.000Z</time>
      </trkpt>
      <trkpt lat="44.99835" lon="5.52964">
        <ele>1530.68</ele>
        <time>2018-09-13T12:16:36.000Z</time>
      </trkpt>
      <trkpt lat="44.99841" lon="5.52953">
        <ele>1528.81</ele>
        <time>2018-09-13T12:16:46.000Z</time>
      </trkpt>
      <trkpt lat="44.99851" lon="5.5295">
        <ele>1527.38</ele>
        <time>2018-09-13T12:17:07.000Z</time>
      </trkpt>
      <trkpt lat="44.99859" lon="5.52943">
        <ele>1526.05</ele>
        <time>2018-09-13T12:17:17.000Z</time>
      </trkpt>
      <trkpt lat="44.99868" lon="5.52942">
        <ele>1525.36</ele>
        <time>2018-09-13T12:17:28.000Z</time>
      </trkpt>
      <trkpt lat="44.99877" lon="5.52939">
        <ele>1524.49</ele>
        <time>2018-09-13T12:17:38.000Z</time>
      </trkpt>
      <trkpt lat="44.9989" lon="5.5293">
        <ele>1522.87</ele>
        <time>2018-09-13T12:17:48.000Z</time>
      </trkpt>
      <trkpt lat="44.99898" lon="5.52919">
        <ele>1520.95</ele>
        <time>2018-09-13T12:17:58.000Z</time>
      </trkpt>
      <trkpt lat="44.99905" lon="5.52909">
        <ele>1519.1</ele>
        <time>2018-09-13T12:18:12.000Z</time>
      </trkpt>
      <trkpt lat="44.99911" lon="5.52898">
        <ele>1517.12</ele>
        <time>2018-09-13T12:18:23.000Z</time>
      </trkpt>
      <trkpt lat="44.9992" lon="5.52892">
        <ele>1514.87</ele>
        <time>2018-09-13T12:18:36.000Z</time>
      </trkpt>
      <trkpt lat="44.9993" lon="5.52891">
        <ele>1512.38</ele>
        <time>2018-09-13T12:18:54.000Z</time>
      </trkpt>
      <trkpt lat="44.9994" lon="5.52887">
        <ele>1509.7</ele>
        <time>2018-09-13T12:19:08.000Z</time>
      </trkpt>
      <trkpt lat="44.99948" lon="5.52879">
        <ele>1506.77</ele>
        <time>2018-09-13T12:19:21.000Z</time>
      </trkpt>
      <trkpt lat="44.99957" lon="5.52879">
        <ele>1504.13</ele>
        <time>2018-09-13T12:19:33.000Z</time>
      </trkpt>
      <trkpt lat="44.99971" lon="5.52875">
        <ele>1499.77</ele>
        <time>2018-09-13T12:19:43.000Z</time>
      </trkpt>
      <trkpt lat="44.99979" lon="5.5287">
        <ele>1496.71</ele>
        <time>2018-09-13T12:20:00.000Z</time>
      </trkpt>
      <trkpt lat="44.99989" lon="5.52867">
        <ele>1493.43</ele>
        <time>2018-09-13T12:20:23.000Z</time>
      </trkpt>
      <trkpt lat="44.99998" lon="5.5286">
        <ele>1489.99</ele>
        <time>2018-09-13T12:20:43.000Z</time>
      </trkpt>
      <trkpt lat="45.00008" lon="5.52855">
        <ele>1487.58</ele>
        <time>2018-09-13T12:21:01.000Z</time>
      </trkpt>
      <trkpt lat="45.00017" lon="5.52852">
        <ele>1485.68</ele>
        <time>2018-09-13T12:21:15.000Z</time>
      </trkpt>
      <trkpt lat="45.00026" lon="5.52851">
        <ele>1483.8</ele>
        <time>2018-09-13T12:21:30.000Z</time>
      </trkpt>
      <trkpt lat="45.00033" lon="5.52842">
        <ele>1481.33</ele>
        <time>2018-09-13T12:21:45.000Z</time>
      </trkpt>
      <trkpt lat="45.00042" lon="5.52838">
        <ele>1479.19</ele>
        <time>2018-09-13T12:22:01.000Z</time>
      </trkpt>
      <trkpt lat="45.00049" lon="5.5283">
        <ele>1476.58</ele>
        <time>2018-09-13T12:22:13.000Z</time>
      </trkpt>
      <trkpt lat="45.00057" lon="5.52821">
        <ele>1473.68</ele>
        <time>2018-09-13T12:22:23.000Z</time>
      </trkpt>
      <trkpt lat="45.00063" lon="5.52805">
        <ele>1469.58</ele>
        <time>2018-09-13T12:22:33.000Z</time>
      </trkpt>
      <trkpt lat="45.00069" lon="5.52793">
        <ele>1466</ele>
        <time>2018-09-13T12:22:43.000Z</time>
      </trkpt>
      <trkpt lat="45.00077" lon="5.52784">
        <ele>1463.07</ele>
        <time>2018-09-13T12:22:57.000Z</time>
      </trkpt>
      <trkpt lat="45.00083" lon="5.52774">
        <ele>1460.33</ele>
        <time>2018-09-13T12:23:08.000Z</time>
      </trkpt>
      <trkpt lat="45.00091" lon="5.52769">
        <ele>1458.44</ele>
        <time>2018-09-13T12:23:20.000Z</time>
      </trkpt>
      <trkpt lat="45.001" lon="5.52765">
        <ele>1456.77</ele>
        <time>2018-09-13T12:23:32.000Z</time>
      </trkpt>
      <trkpt lat="45.00105" lon="5.52753">
        <ele>1454.52</ele>
        <time>2018-09-13T12:23:44.000Z</time>
      </trkpt>
      <trkpt lat="45.00105" lon="5.52741">
        <ele>1452.7</ele>
        <time>2018-09-13T12:24:01.000Z</time>
      </trkpt>
      <trkpt lat="45.00104" lon="5.52728">
        <ele>1451.2</ele>
        <time>2018-09-13T12:24:13.000Z</time>
      </trkpt>
      <trkpt lat="45.00109" lon="5.52714">
        <ele>1449.42</ele>
        <time>2018-09-13T12:24:23.000Z</time>
      </trkpt>
      <trkpt lat="45.00114" lon="5.52701">
        <ele>1447.61</ele>
        <time>2018-09-13T12:24:36.000Z</time>
      </trkpt>
      <trkpt lat="45.0012" lon="5.5269">
        <ele>1445.89</ele>
        <time>2018-09-13T12:24:46.000Z</time>
      </trkpt>
      <trkpt lat="45.00127" lon="5.52679">
        <ele>1444.09</ele>
        <time>2018-09-13T12:24:56.000Z</time>
      </trkpt>
      <trkpt lat="45.00129" lon="5.52665">
        <ele>1442.02</ele>
        <time>2018-09-13T12:25:06.000Z</time>
      </trkpt>
      <trkpt lat="45.00136" lon="5.52653">
        <ele>1439.71</ele>
        <time>2018-09-13T12:25:16.000Z</time>
      </trkpt>
      <trkpt lat="45.00134" lon="5.52638">
        <ele>1437.61</ele>
        <time>2018-09-13T12:25:29.000Z</time>
      </trkpt>
      <trkpt lat="45.00134" lon="5.52623">
        <ele>1435.38</ele>
        <time>2018-09-13T12:25:39.000Z</time>
      </trkpt>
      <trkpt lat="45.00132" lon="5.52606">
        <ele>1432.96</ele>
        <time>2018-09-13T12:25:49.000Z</time>
      </trkpt>
      <trkpt lat="45.00134" lon="5.5259">
        <ele>1430.51</ele>
        <time>2018-09-13T12:25:59.000Z</time>
      </trkpt>
      <trkpt lat="45.0014" lon="5.5258">
        <ele>1428.89</ele>
        <time>2018-09-13T12:26:10.000Z</time>
      </trkpt>
      <trkpt lat="45.00141" lon="5.52566">
        <ele>1426.69</ele>
        <time>2018-09-13T12:26:20.000Z</time>
      </trkpt>
      <trkpt lat="45.0014" lon="5.52551">
        <ele>1424.41</ele>
        <time>2018-09-13T12:26:30.000Z</time>
      </trkpt>
      <trkpt lat="45.00141" lon="5.52535">
        <ele>1421.84</ele>
        <time>2018-09-13T12:26:40.000Z</time>
      </trkpt>
      <trkpt lat="45.0014" lon="5.52519">
        <ele>1419.72</ele>
        <time>2018-09-13T12:26:50.000Z</time>
      </trkpt>
      <trkpt lat="45.00139" lon="5.52506">
        <ele>1418.27</ele>
        <time>2018-09-13T12:27:01.000Z</time>
      </trkpt>
      <trkpt lat="45.00139" lon="5.52491">
        <ele>1416.96</ele>
        <time>2018-09-13T12:27:11.000Z</time>
      </trkpt>
      <trkpt lat="45.00142" lon="5.52473">
        <ele>1415.54</ele>
        <time>2018-09-13T12:27:21.000Z</time>
      </trkpt>
      <trkpt lat="45.00145" lon="5.5246">
        <ele>1414.48</ele>
        <time>2018-09-13T12:27:32.000Z</time>
      </trkpt>
      <trkpt lat="45.00151" lon="5.5245">
        <ele>1413.33</ele>
        <time>2018-09-13T12:27:43.000Z</time>
      </trkpt>
      <trkpt lat="45.00159" lon="5.52444">
        <ele>1412.09</ele>
        <time>2018-09-13T12:27:53.000Z</time>
      </trkpt>
      <trkpt lat="45.00166" lon="5.52434">
        <ele>1410.84</ele>
        <time>2018-09-13T12:28:05.000Z</time>
      </trkpt>
      <trkpt lat="45.00175" lon="5.52422">
        <ele>1409.53</ele>
        <time>2018-09-13T12:28:15.000Z</time>
      </trkpt>
      <trkpt lat="45.00183" lon="5.52408">
        <ele>1408.41</ele>
        <time>2018-09-13T12:28:25.000Z</time>
      </trkpt>
      <trkpt lat="45.00188" lon="5.52397">
        <ele>1407.74</ele>
        <time>2018-09-13T12:28:50.000Z</time>
      </trkpt>
      <trkpt lat="45.00197" lon="5.52392">
        <ele>1407.29</ele>
        <time>2018-09-13T12:29:05.000Z</time>
      </trkpt>
      <trkpt lat="45.00206" lon="5.52392">
        <ele>1407.33</ele>
        <time>2018-09-13T12:29:19.000Z</time>
      </trkpt>
      <trkpt lat="45.00213" lon="5.52384">
        <ele>1407.07</ele>
        <time>2018-09-13T12:29:31.000Z</time>
      </trkpt>
      <trkpt lat="45.00221" lon="5.52377">
        <ele>1406.85</ele>
        <time>2018-09-13T12:29:41.000Z</time>
      </trkpt>
      <trkpt lat="45.00231" lon="5.52372">
        <ele>1406.92</ele>
        <time>2018-09-13T12:29:52.000Z</time>
      </trkpt>
      <trkpt lat="45.00241" lon="5.52368">
        <ele>1407.04</ele>
        <time>2018-09-13T12:30:02.000Z</time>
      </trkpt>
      <trkpt lat="45.0025" lon="5.52366">
        <ele>1407.22</ele>
        <time>2018-09-13T12:30:12.000Z</time>
      </trkpt>
      <trkpt lat="45.00261" lon="5.52363">
        <ele>1407.61</ele>
        <time>2018-09-13T12:30:24.000Z</time>
      </trkpt>
      <trkpt lat="45.00271" lon="5.52359">
        <ele>1408.4</ele>
        <time>2018-09-13T12:30:36.000Z</time>
      </trkpt>
      <trkpt lat="45.00281" lon="5.52351">
        <ele>1408.68</ele>
        <time>2018-09-13T12:30:46.000Z</time>
      </trkpt>
      <trkpt lat="45.0029" lon="5.52347">
        <ele>1409.33</ele>
        <time>2018-09-13T12:30:57.000Z</time>
      </trkpt>
      <trkpt lat="45.00299" lon="5.52344">
        <ele>1410.15</ele>
        <time>2018-09-13T12:31:07.000Z</time>
      </trkpt>
      <trkpt lat="45.00309" lon="5.52339">
        <ele>1410.49</ele>
        <time>2018-09-13T12:31:17.000Z</time>
      </trkpt>
      <trkpt lat="45.00319" lon="5.52334">
        <ele>1410.27</ele>
        <time>2018-09-13T12:31:27.000Z</time>
      </trkpt>
      <trkpt lat="45.00326" lon="5.52325">
        <ele>1408.88</ele>
        <time>2018-09-13T12:31:38.000Z</time>
      </trkpt>
      <trkpt lat="45.00336" lon="5.52323">
        <ele>1407.98</ele>
        <time>2018-09-13T12:31:48.000Z</time>
      </trkpt>
      <trkpt lat="45.00345" lon="5.52322">
        <ele>1406.87</ele>
        <time>2018-09-13T12:31:59.000Z</time>
      </trkpt>
      <trkpt lat="45.00355" lon="5.52321">
        <ele>1405.08</ele>
        <time>2018-09-13T12:32:09.000Z</time>
      </trkpt>
      <trkpt lat="45.00364" lon="5.52321">
        <ele>1403.22</ele>
        <time>2018-09-13T12:32:24.000Z</time>
      </trkpt>
      <trkpt lat="45.00374" lon="5.52319">
        <ele>1400.92</ele>
        <time>2018-09-13T12:32:34.000Z</time>
      </trkpt>
      <trkpt lat="45.00382" lon="5.52316">
        <ele>1398.42</ele>
        <time>2018-09-13T12:32:44.000Z</time>
      </trkpt>
      <trkpt lat="45.00391" lon="5.52322">
        <ele>1397.39</ele>
        <time>2018-09-13T12:32:58.000Z</time>
      </trkpt>
      <trkpt lat="45.00399" lon="5.52328">
        <ele>1396.59</ele>
        <time>2018-09-13T12:33:08.000Z</time>
      </trkpt>
      <trkpt lat="45.00412" lon="5.52331">
        <ele>1394.41</ele>
        <time>2018-09-13T12:33:18.000Z</time>
      </trkpt>
      <trkpt lat="45.00425" lon="5.52329">
        <ele>1391.79</ele>
        <time>2018-09-13T12:33:28.000Z</time>
      </trkpt>
      <trkpt lat="45.00438" lon="5.52326">
        <ele>1388.92</ele>
        <time>2018-09-13T12:33:38.000Z</time>
      </trkpt>
      <trkpt lat="45.00446" lon="5.52333">
        <ele>1389.01</ele>
        <time>2018-09-13T12:33:48.000Z</time>
      </trkpt>
      <trkpt lat="45.00455" lon="5.52331">
        <ele>1387.15</ele>
        <time>2018-09-13T12:33:58.000Z</time>
      </trkpt>
      <trkpt lat="45.00466" lon="5.52325">
        <ele>1384.43</ele>
        <time>2018-09-13T12:34:08.000Z</time>
      </trkpt>
      <trkpt lat="45.00475" lon="5.52318">
        <ele>1381.61</ele>
        <time>2018-09-13T12:34:19.000Z</time>
      </trkpt>
      <trkpt lat="45.00484" lon="5.52319">
        <ele>1380.13</ele>
        <time>2018-09-13T12:34:29.000Z</time>
      </trkpt>
      <trkpt lat="45.00494" lon="5.52322">
        <ele>1378.9</ele>
        <time>2018-09-13T12:34:39.000Z</time>
      </trkpt>
      <trkpt lat="45.00504" lon="5.52325">
        <ele>1377.54</ele>
        <time>2018-09-13T12:34:49.000Z</time>
      </trkpt>
      <trkpt lat="45.00514" lon="5.52332">
        <ele>1376.8</ele>
        <time>2018-09-13T12:34:59.000Z</time>
      </trkpt>
      <trkpt lat="45.00526" lon="5.52336">
        <ele>1375.18</ele>
        <time>2018-09-13T12:35:09.000Z</time>
      </trkpt>
      <trkpt lat="45.00538" lon="5.52338">
        <ele>1372.92</ele>
        <time>2018-09-13T12:35:19.000Z</time>
      </trkpt>
      <trkpt lat="45.00548" lon="5.52334">
        <ele>1369.79</ele>
        <time>2018-09-13T12:35:29.000Z</time>
      </trkpt>
      <trkpt lat="45.00558" lon="5.52336">
        <ele>1367.84</ele>
        <time>2018-09-13T12:35:42.000Z</time>
      </trkpt>
      <trkpt lat="45.00569" lon="5.52342">
        <ele>1366.3</ele>
        <time>2018-09-13T12:35:53.000Z</time>
      </trkpt>
      <trkpt lat="45.00579" lon="5.52349">
        <ele>1365.11</ele>
        <time>2018-09-13T12:36:03.000Z</time>
      </trkpt>
      <trkpt lat="45.00588" lon="5.52352">
        <ele>1363.26</ele>
        <time>2018-09-13T12:36:14.000Z</time>
      </trkpt>
      <trkpt lat="45.00599" lon="5.5235">
        <ele>1359.93</ele>
        <time>2018-09-13T12:36:24.000Z</time>
      </trkpt>
      <trkpt lat="45.0061" lon="5.5235">
        <ele>1356.8</ele>
        <time>2018-09-13T12:36:36.000Z</time>
      </trkpt>
      <trkpt lat="45.00619" lon="5.52357">
        <ele>1355.49</ele>
        <time>2018-09-13T12:36:47.000Z</time>
      </trkpt>
      <trkpt lat="45.00628" lon="5.52359">
        <ele>1353.16</ele>
        <time>2018-09-13T12:36:59.000Z</time>
      </trkpt>
      <trkpt lat="45.00637" lon="5.52363">
        <ele>1351.25</ele>
        <time>2018-09-13T12:37:10.000Z</time>
      </trkpt>
      <trkpt lat="45.00646" lon="5.52367">
        <ele>1349.17</ele>
        <time>2018-09-13T12:37:21.000Z</time>
      </trkpt>
      <trkpt lat="45.00656" lon="5.52371">
        <ele>1347.11</ele>
        <time>2018-09-13T12:37:31.000Z</time>
      </trkpt>
      <trkpt lat="45.00665" lon="5.52378">
        <ele>1345.6</ele>
        <time>2018-09-13T12:37:42.000Z</time>
      </trkpt>
      <trkpt lat="45.00675" lon="5.52384">
        <ele>1343.66</ele>
        <time>2018-09-13T12:37:52.000Z</time>
      </trkpt>
      <trkpt lat="45.00685" lon="5.52389">
        <ele>1341.32</ele>
        <time>2018-09-13T12:38:02.000Z</time>
      </trkpt>
      <trkpt lat="45.00694" lon="5.52396">
        <ele>1339.83</ele>
        <time>2018-09-13T12:38:13.000Z</time>
      </trkpt>
      <trkpt lat="45.00702" lon="5.52403">
        <ele>1338.42</ele>
        <time>2018-09-13T12:38:23.000Z</time>
      </trkpt>
      <trkpt lat="45.00711" lon="5.52406">
        <ele>1336.19</ele>
        <time>2018-09-13T12:38:33.000Z</time>
      </trkpt>
      <trkpt lat="45.00721" lon="5.52412">
        <ele>1334.21</ele>
        <time>2018-09-13T12:38:45.000Z</time>
      </trkpt>
      <trkpt lat="45.00729" lon="5.5242">
        <ele>1333.1</ele>
        <time>2018-09-13T12:38:55.000Z</time>
      </trkpt>
      <trkpt lat="45.00739" lon="5.52422">
        <ele>1330.7</ele>
        <time>2018-09-13T12:39:12.000Z</time>
      </trkpt>
      <trkpt lat="45.00749" lon="5.52427">
        <ele>1328.96</ele>
        <time>2018-09-13T12:39:22.000Z</time>
      </trkpt>
      <trkpt lat="45.0076" lon="5.52423">
        <ele>1325.56</ele>
        <time>2018-09-13T12:39:32.000Z</time>
      </trkpt>
      <trkpt lat="45.00769" lon="5.52419">
        <ele>1322.68</ele>
        <time>2018-09-13T12:39:42.000Z</time>
      </trkpt>
      <trkpt lat="45.00778" lon="5.52422">
        <ele>1321.17</ele>
        <time>2018-09-13T12:39:54.000Z</time>
      </trkpt>
      <trkpt lat="45.00788" lon="5.52427">
        <ele>1319.63</ele>
        <time>2018-09-13T12:40:05.000Z</time>
      </trkpt>
      <trkpt lat="45.00797" lon="5.52429">
        <ele>1317.49</ele>
        <time>2018-09-13T12:40:15.000Z</time>
      </trkpt>
      <trkpt lat="45.00807" lon="5.52432">
        <ele>1315.51</ele>
        <time>2018-09-13T12:40:25.000Z</time>
      </trkpt>
      <trkpt lat="45.00817" lon="5.52439">
        <ele>1313.91</ele>
        <time>2018-09-13T12:40:35.000Z</time>
      </trkpt>
      <trkpt lat="45.00827" lon="5.52447">
        <ele>1312.29</ele>
        <time>2018-09-13T12:40:45.000Z</time>
      </trkpt>
      <trkpt lat="45.00836" lon="5.52453">
        <ele>1310.44</ele>
        <time>2018-09-13T12:40:55.000Z</time>
      </trkpt>
      <trkpt lat="45.00848" lon="5.52461">
        <ele>1307.95</ele>
        <time>2018-09-13T12:41:05.000Z</time>
      </trkpt>
      <trkpt lat="45.00855" lon="5.5247">
        <ele>1307.04</ele>
        <time>2018-09-13T12:41:15.000Z</time>
      </trkpt>
      <trkpt lat="45.00862" lon="5.52483">
        <ele>1306.74</ele>
        <time>2018-09-13T12:41:25.000Z</time>
      </trkpt>
      <trkpt lat="45.0087" lon="5.52496">
        <ele>1306.05</ele>
        <time>2018-09-13T12:41:35.000Z</time>
      </trkpt>
      <trkpt lat="45.0088" lon="5.52505">
        <ele>1304.61</ele>
        <time>2018-09-13T12:41:45.000Z</time>
      </trkpt>
      <trkpt lat="45.00888" lon="5.52513">
        <ele>1303.73</ele>
        <time>2018-09-13T12:41:56.000Z</time>
      </trkpt>
      <trkpt lat="45.00899" lon="5.5252">
        <ele>1301.86</ele>
        <time>2018-09-13T12:42:06.000Z</time>
      </trkpt>
      <trkpt lat="45.0091" lon="5.52527">
        <ele>1300.2</ele>
        <time>2018-09-13T12:42:16.000Z</time>
      </trkpt>
      <trkpt lat="45.00917" lon="5.52534">
        <ele>1299.17</ele>
        <time>2018-09-13T12:42:27.000Z</time>
      </trkpt>
      <trkpt lat="45.00925" lon="5.52543">
        <ele>1298.32</ele>
        <time>2018-09-13T12:42:37.000Z</time>
      </trkpt>
      <trkpt lat="45.00935" lon="5.52556">
        <ele>1297.71</ele>
        <time>2018-09-13T12:42:47.000Z</time>
      </trkpt>
      <trkpt lat="45.00944" lon="5.52566">
        <ele>1296.66</ele>
        <time>2018-09-13T12:42:57.000Z</time>
      </trkpt>
      <trkpt lat="45.00953" lon="5.52572">
        <ele>1295.01</ele>
        <time>2018-09-13T12:43:07.000Z</time>
      </trkpt>
      <trkpt lat="45.00961" lon="5.52581">
        <ele>1294.02</ele>
        <time>2018-09-13T12:43:17.000Z</time>
      </trkpt>
      <trkpt lat="45.00971" lon="5.5259">
        <ele>1292.29</ele>
        <time>2018-09-13T12:43:27.000Z</time>
      </trkpt>
      <trkpt lat="45.0098" lon="5.52596">
        <ele>1290.71</ele>
        <time>2018-09-13T12:43:38.000Z</time>
      </trkpt>
      <trkpt lat="45.00989" lon="5.52602">
        <ele>1288.66</ele>
        <time>2018-09-13T12:43:48.000Z</time>
      </trkpt>
      <trkpt lat="45.01" lon="5.52604">
        <ele>1285.88</ele>
        <time>2018-09-13T12:43:58.000Z</time>
      </trkpt>
      <trkpt lat="45.01008" lon="5.5261">
        <ele>1284.18</ele>
        <time>2018-09-13T12:44:09.000Z</time>
      </trkpt>
      <trkpt lat="45.01021" lon="5.52616">
        <ele>1281.14</ele>
        <time>2018-09-13T12:44:19.000Z</time>
      </trkpt>
      <trkpt lat="45.01029" lon="5.52624">
        <ele>1279.69</ele>
        <time>2018-09-13T12:44:29.000Z</time>
      </trkpt>
      <trkpt lat="45.0104" lon="5.52624">
        <ele>1276.31</ele>
        <time>2018-09-13T12:44:39.000Z</time>
      </trkpt>
      <trkpt lat="45.01052" lon="5.52625">
        <ele>1273.4</ele>
        <time>2018-09-13T12:44:49.000Z</time>
      </trkpt>
      <trkpt lat="45.01063" lon="5.52625">
        <ele>1270.49</ele>
        <time>2018-09-13T12:44:59.000Z</time>
      </trkpt>
      <trkpt lat="45.01076" lon="5.52624">
        <ele>1267.99</ele>
        <time>2018-09-13T12:45:09.000Z</time>
      </trkpt>
      <trkpt lat="45.01086" lon="5.52632">
        <ele>1268.14</ele>
        <time>2018-09-13T12:45:19.000Z</time>
      </trkpt>
      <trkpt lat="45.01096" lon="5.52638">
        <ele>1268.71</ele>
        <time>2018-09-13T12:45:30.000Z</time>
      </trkpt>
      <trkpt lat="45.01108" lon="5.52638">
        <ele>1268.88</ele>
        <time>2018-09-13T12:45:40.000Z</time>
      </trkpt>
      <trkpt lat="45.0112" lon="5.52642">
        <ele>1270.36</ele>
        <time>2018-09-13T12:45:50.000Z</time>
      </trkpt>
      <trkpt lat="45.01132" lon="5.52648">
        <ele>1272.44</ele>
        <time>2018-09-13T12:46:00.000Z</time>
      </trkpt>
      <trkpt lat="45.01143" lon="5.52654">
        <ele>1274.56</ele>
        <time>2018-09-13T12:46:10.000Z</time>
      </trkpt>
      <trkpt lat="45.01154" lon="5.52656">
        <ele>1275.79</ele>
        <time>2018-09-13T12:46:20.000Z</time>
      </trkpt>
      <trkpt lat="45.01166" lon="5.52656">
        <ele>1276.37</ele>
        <time>2018-09-13T12:46:30.000Z</time>
      </trkpt>
      <trkpt lat="45.01178" lon="5.52658">
        <ele>1276.84</ele>
        <time>2018-09-13T12:46:40.000Z</time>
      </trkpt>
      <trkpt lat="45.01189" lon="5.52661">
        <ele>1277.55</ele>
        <time>2018-09-13T12:46:50.000Z</time>
      </trkpt>
      <trkpt lat="45.01198" lon="5.52654">
        <ele>1276.78</ele>
        <time>2018-09-13T12:47:01.000Z</time>
      </trkpt>
      <trkpt lat="45.01213" lon="5.52648">
        <ele>1276.05</ele>
        <time>2018-09-13T12:47:11.000Z</time>
      </trkpt>
      <trkpt lat="45.01228" lon="5.52642">
        <ele>1275.23</ele>
        <time>2018-09-13T12:47:21.000Z</time>
      </trkpt>
      <trkpt lat="45.01244" lon="5.52636">
        <ele>1274.04</ele>
        <time>2018-09-13T12:47:31.000Z</time>
      </trkpt>
      <trkpt lat="45.01253" lon="5.52632">
        <ele>1272.92</ele>
        <time>2018-09-13T12:47:41.000Z</time>
      </trkpt>
      <trkpt lat="45.01262" lon="5.52628">
        <ele>1271.33</ele>
        <time>2018-09-13T12:47:51.000Z</time>
      </trkpt>
      <trkpt lat="45.01272" lon="5.52625">
        <ele>1269.47</ele>
        <time>2018-09-13T12:48:03.000Z</time>
      </trkpt>
      <trkpt lat="45.01282" lon="5.52623">
        <ele>1267.24</ele>
        <time>2018-09-13T12:48:13.000Z</time>
      </trkpt>
      <trkpt lat="45.01293" lon="5.52617">
        <ele>1264.34</ele>
        <time>2018-09-13T12:48:23.000Z</time>
      </trkpt>
      <trkpt lat="45.01304" lon="5.5261">
        <ele>1261.43</ele>
        <time>2018-09-13T12:48:33.000Z</time>
      </trkpt>
      <trkpt lat="45.01314" lon="5.52602">
        <ele>1258.58</ele>
        <time>2018-09-13T12:48:43.000Z</time>
      </trkpt>
      <trkpt lat="45.01322" lon="5.52596">
        <ele>1256.65</ele>
        <time>2018-09-13T12:48:54.000Z</time>
      </trkpt>
      <trkpt lat="45.01333" lon="5.5259">
        <ele>1254.71</ele>
        <time>2018-09-13T12:49:04.000Z</time>
      </trkpt>
      <trkpt lat="45.01343" lon="5.52586">
        <ele>1253.15</ele>
        <time>2018-09-13T12:49:14.000Z</time>
      </trkpt>
      <trkpt lat="45.01354" lon="5.52584">
        <ele>1251.92</ele>
        <time>2018-09-13T12:49:24.000Z</time>
      </trkpt>
      <trkpt lat="45.01361" lon="5.52576">
        <ele>1250.49</ele>
        <time>2018-09-13T12:49:35.000Z</time>
      </trkpt>
      <trkpt lat="45.01371" lon="5.52566">
        <ele>1249.09</ele>
        <time>2018-09-13T12:49:45.000Z</time>
      </trkpt>
      <trkpt lat="45.0138" lon="5.52559">
        <ele>1248.31</ele>
        <time>2018-09-13T12:49:55.000Z</time>
      </trkpt>
      <trkpt lat="45.0139" lon="5.52557">
        <ele>1247.74</ele>
        <time>2018-09-13T12:50:05.000Z</time>
      </trkpt>
      <trkpt lat="45.01398" lon="5.52565">
        <ele>1247.53</ele>
        <time>2018-09-13T12:50:19.000Z</time>
      </trkpt>
      <trkpt lat="45.01404" lon="5.52574">
        <ele>1247.82</ele>
        <time>2018-09-13T12:50:30.000Z</time>
      </trkpt>
      <trkpt lat="45.0141" lon="5.52585">
        <ele>1249.18</ele>
        <time>2018-09-13T12:50:41.000Z</time>
      </trkpt>
      <trkpt lat="45.01418" lon="5.52596">
        <ele>1251.57</ele>
        <time>2018-09-13T12:50:51.000Z</time>
      </trkpt>
      <trkpt lat="45.01423" lon="5.52608">
        <ele>1255.12</ele>
        <time>2018-09-13T12:51:01.000Z</time>
      </trkpt>
      <trkpt lat="45.01429" lon="5.52619">
        <ele>1258.99</ele>
        <time>2018-09-13T12:51:13.000Z</time>
      </trkpt>
      <trkpt lat="45.01433" lon="5.5263">
        <ele>1263.41</ele>
        <time>2018-09-13T12:51:25.000Z</time>
      </trkpt>
      <trkpt lat="45.01443" lon="5.52635">
        <ele>1266.3</ele>
        <time>2018-09-13T12:51:42.000Z</time>
      </trkpt>
      <trkpt lat="45.01452" lon="5.52637">
        <ele>1268.58</ele>
        <time>2018-09-13T12:51:55.000Z</time>
      </trkpt>
      <trkpt lat="45.01461" lon="5.52635">
        <ele>1269.32</ele>
        <time>2018-09-13T12:52:08.000Z</time>
      </trkpt>
      <trkpt lat="45.01471" lon="5.52633">
        <ele>1270.14</ele>
        <time>2018-09-13T12:52:20.000Z</time>
      </trkpt>
      <trkpt lat="45.0148" lon="5.52629">
        <ele>1270.36</ele>
        <time>2018-09-13T12:52:39.000Z</time>
      </trkpt>
      <trkpt lat="45.0149" lon="5.52626">
        <ele>1270.77</ele>
        <time>2018-09-13T12:52:54.000Z</time>
      </trkpt>
      <trkpt lat="45.01499" lon="5.52627">
        <ele>1272.21</ele>
        <time>2018-09-13T12:53:10.000Z</time>
      </trkpt>
      <trkpt lat="45.01502" lon="5.5264">
        <ele>1276.35</ele>
        <time>2018-09-13T12:53:30.000Z</time>
      </trkpt>
      <trkpt lat="45.01503" lon="5.52653">
        <ele>1279.61</ele>
        <time>2018-09-13T12:53:46.000Z</time>
      </trkpt>
      <trkpt lat="45.015" lon="5.52665">
        <ele>1281.77</ele>
        <time>2018-09-13T12:53:57.000Z</time>
      </trkpt>
      <trkpt lat="45.01494" lon="5.52675">
        <ele>1282.76</ele>
        <time>2018-09-13T12:54:07.000Z</time>
      </trkpt>
      <trkpt lat="45.01488" lon="5.52687">
        <ele>1283.45</ele>
        <time>2018-09-13T12:54:17.000Z</time>
      </trkpt>
      <trkpt lat="45.01484" lon="5.52699">
        <ele>1283.82</ele>
        <time>2018-09-13T12:54:29.000Z</time>
      </trkpt>
      <trkpt lat="45.01479" lon="5.52711">
        <ele>1284.18</ele>
        <time>2018-09-13T12:54:39.000Z</time>
      </trkpt>
      <trkpt lat="45.01475" lon="5.52723">
        <ele>1284.72</ele>
        <time>2018-09-13T12:54:51.000Z</time>
      </trkpt>
      <trkpt lat="45.01469" lon="5.52733">
        <ele>1285.78</ele>
        <time>2018-09-13T12:55:02.000Z</time>
      </trkpt>
      <trkpt lat="45.01463" lon="5.52743">
        <ele>1287.31</ele>
        <time>2018-09-13T12:55:18.000Z</time>
      </trkpt>
      <trkpt lat="45.01457" lon="5.52753">
        <ele>1289.39</ele>
        <time>2018-09-13T12:55:28.000Z</time>
      </trkpt>
      <trkpt lat="45.0145" lon="5.52761">
        <ele>1291.71</ele>
        <time>2018-09-13T12:55:47.000Z</time>
      </trkpt>
      <trkpt lat="45.01448" lon="5.52775">
        <ele>1293.97</ele>
        <time>2018-09-13T12:55:57.000Z</time>
      </trkpt>
      <trkpt lat="45.0145" lon="5.5279">
        <ele>1295.91</ele>
        <time>2018-09-13T12:56:07.000Z</time>
      </trkpt>
      <trkpt lat="45.01449" lon="5.52804">
        <ele>1297.86</ele>
        <time>2018-09-13T12:56:17.000Z</time>
      </trkpt>
      <trkpt lat="45.01451" lon="5.5282">
        <ele>1299.06</ele>
        <time>2018-09-13T12:56:27.000Z</time>
      </trkpt>
      <trkpt lat="45.01449" lon="5.52835">
        <ele>1300.82</ele>
        <time>2018-09-13T12:56:37.000Z</time>
      </trkpt>
      <trkpt lat="45.01446" lon="5.52853">
        <ele>1302.06</ele>
        <time>2018-09-13T12:56:47.000Z</time>
      </trkpt>
      <trkpt lat="45.01449" lon="5.52868">
        <ele>1301.24</ele>
        <time>2018-09-13T12:56:57.000Z</time>
      </trkpt>
      <trkpt lat="45.0145" lon="5.52883">
        <ele>1300.74</ele>
        <time>2018-09-13T12:57:07.000Z</time>
      </trkpt>
      <trkpt lat="45.01451" lon="5.52898">
        <ele>1300.02</ele>
        <time>2018-09-13T12:57:17.000Z</time>
      </trkpt>
      <trkpt lat="45.01451" lon="5.52912">
        <ele>1299.99</ele>
        <time>2018-09-13T12:57:27.000Z</time>
      </trkpt>
      <trkpt lat="45.01451" lon="5.52929">
        <ele>1300.15</ele>
        <time>2018-09-13T12:57:37.000Z</time>
      </trkpt>
      <trkpt lat="45.01452" lon="5.52947">
        <ele>1300.15</ele>
        <time>2018-09-13T12:57:47.000Z</time>
      </trkpt>
      <trkpt lat="45.01461" lon="5.5296">
        <ele>1297.44</ele>
        <time>2018-09-13T12:57:57.000Z</time>
      </trkpt>
      <trkpt lat="45.01468" lon="5.52971">
        <ele>1295.47</ele>
        <time>2018-09-13T12:58:07.000Z</time>
      </trkpt>
      <trkpt lat="45.01476" lon="5.52982">
        <ele>1293.48</ele>
        <time>2018-09-13T12:58:17.000Z</time>
      </trkpt>
      <trkpt lat="45.01486" lon="5.52989">
        <ele>1290.75</ele>
        <time>2018-09-13T12:58:27.000Z</time>
      </trkpt>
      <trkpt lat="45.01496" lon="5.52996">
        <ele>1288.72</ele>
        <time>2018-09-13T12:58:39.000Z</time>
      </trkpt>
      <trkpt lat="45.01501" lon="5.5301">
        <ele>1288.39</ele>
        <time>2018-09-13T12:58:49.000Z</time>
      </trkpt>
      <trkpt lat="45.01507" lon="5.53021">
        <ele>1287.78</ele>
        <time>2018-09-13T12:58:59.000Z</time>
      </trkpt>
      <trkpt lat="45.01517" lon="5.53029">
        <ele>1286.52</ele>
        <time>2018-09-13T12:59:09.000Z</time>
      </trkpt>
      <trkpt lat="45.01525" lon="5.53037">
        <ele>1285.46</ele>
        <time>2018-09-13T12:59:19.000Z</time>
      </trkpt>
      <trkpt lat="45.01534" lon="5.53031">
        <ele>1284.01</ele>
        <time>2018-09-13T12:59:29.000Z</time>
      </trkpt>
      <trkpt lat="45.01542" lon="5.53024">
        <ele>1282.96</ele>
        <time>2018-09-13T12:59:39.000Z</time>
      </trkpt>
      <trkpt lat="45.01552" lon="5.53027">
        <ele>1281.72</ele>
        <time>2018-09-13T12:59:51.000Z</time>
      </trkpt>
      <trkpt lat="45.0156" lon="5.53034">
        <ele>1280.19</ele>
        <time>2018-09-13T13:00:03.000Z</time>
      </trkpt>
      <trkpt lat="45.01569" lon="5.53037">
        <ele>1278.54</ele>
        <time>2018-09-13T13:00:14.000Z</time>
      </trkpt>
      <trkpt lat="45.01577" lon="5.53047">
        <ele>1276.1</ele>
        <time>2018-09-13T13:00:24.000Z</time>
      </trkpt>
      <trkpt lat="45.01587" lon="5.5305">
        <ele>1273.81</ele>
        <time>2018-09-13T13:00:35.000Z</time>
      </trkpt>
      <trkpt lat="45.01593" lon="5.53038">
        <ele>1273.8</ele>
        <time>2018-09-13T13:02:17.000Z</time>
      </trkpt>
      <trkpt lat="45.01601" lon="5.53045">
        <ele>1271.32</ele>
        <time>2018-09-13T13:04:09.000Z</time>
      </trkpt>
      <trkpt lat="45.0161" lon="5.53048">
        <ele>1268.93</ele>
        <time>2018-09-13T13:04:22.000Z</time>
      </trkpt>
      <trkpt lat="45.01619" lon="5.53051">
        <ele>1266.55</ele>
        <time>2018-09-13T13:04:32.000Z</time>
      </trkpt>
      <trkpt lat="45.01629" lon="5.5305">
        <ele>1264.12</ele>
        <time>2018-09-13T13:04:42.000Z</time>
      </trkpt>
      <trkpt lat="45.01641" lon="5.53049">
        <ele>1261.52</ele>
        <time>2018-09-13T13:04:52.000Z</time>
      </trkpt>
      <trkpt lat="45.01652" lon="5.53044">
        <ele>1259.29</ele>
        <time>2018-09-13T13:05:02.000Z</time>
      </trkpt>
      <trkpt lat="45.01665" lon="5.53041">
        <ele>1256.77</ele>
        <time>2018-09-13T13:05:12.000Z</time>
      </trkpt>
      <trkpt lat="45.01675" lon="5.53039">
        <ele>1254.71</ele>
        <time>2018-09-13T13:05:22.000Z</time>
      </trkpt>
      <trkpt lat="45.01683" lon="5.53033">
        <ele>1253.25</ele>
        <time>2018-09-13T13:05:32.000Z</time>
      </trkpt>
      <trkpt lat="45.01693" lon="5.53028">
        <ele>1251.17</ele>
        <time>2018-09-13T13:05:46.000Z</time>
      </trkpt>
      <trkpt lat="45.01703" lon="5.53022">
        <ele>1248.79</ele>
        <time>2018-09-13T13:05:56.000Z</time>
      </trkpt>
      <trkpt lat="45.01713" lon="5.53016">
        <ele>1246.56</ele>
        <time>2018-09-13T13:06:06.000Z</time>
      </trkpt>
      <trkpt lat="45.01722" lon="5.5301">
        <ele>1244.33</ele>
        <time>2018-09-13T13:06:17.000Z</time>
      </trkpt>
      <trkpt lat="45.01731" lon="5.53007">
        <ele>1241.83</ele>
        <time>2018-09-13T13:06:27.000Z</time>
      </trkpt>
      <trkpt lat="45.01741" lon="5.53001">
        <ele>1239.79</ele>
        <time>2018-09-13T13:06:37.000Z</time>
      </trkpt>
      <trkpt lat="45.0175" lon="5.52995">
        <ele>1238.25</ele>
        <time>2018-09-13T13:06:47.000Z</time>
      </trkpt>
      <trkpt lat="45.01758" lon="5.52986">
        <ele>1237.29</ele>
        <time>2018-09-13T13:06:57.000Z</time>
      </trkpt>
      <trkpt lat="45.01766" lon="5.52978">
        <ele>1236.8</ele>
        <time>2018-09-13T13:07:08.000Z</time>
      </trkpt>
      <trkpt lat="45.01776" lon="5.52971">
        <ele>1236.26</ele>
        <time>2018-09-13T13:07:18.000Z</time>
      </trkpt>
      <trkpt lat="45.01786" lon="5.5296">
        <ele>1236.19</ele>
        <time>2018-09-13T13:07:28.000Z</time>
      </trkpt>
      <trkpt lat="45.01795" lon="5.52954">
        <ele>1236.04</ele>
        <time>2018-09-13T13:07:38.000Z</time>
      </trkpt>
      <trkpt lat="45.01805" lon="5.52951">
        <ele>1235.73</ele>
        <time>2018-09-13T13:07:48.000Z</time>
      </trkpt>
      <trkpt lat="45.01818" lon="5.52945">
        <ele>1235.44</ele>
        <time>2018-09-13T13:07:58.000Z</time>
      </trkpt>
      <trkpt lat="45.0183" lon="5.52941">
        <ele>1235.03</ele>
        <time>2018-09-13T13:08:08.000Z</time>
      </trkpt>
      <trkpt lat="45.0184" lon="5.52936">
        <ele>1234.63</ele>
        <time>2018-09-13T13:08:18.000Z</time>
      </trkpt>
      <trkpt lat="45.01852" lon="5.52929">
        <ele>1234.46</ele>
        <time>2018-09-13T13:08:28.000Z</time>
      </trkpt>
      <trkpt lat="45.01863" lon="5.52933">
        <ele>1234.13</ele>
        <time>2018-09-13T13:08:38.000Z</time>
      </trkpt>
      <trkpt lat="45.01874" lon="5.52939">
        <ele>1233.93</ele>
        <time>2018-09-13T13:08:48.000Z</time>
      </trkpt>
      <trkpt lat="45.01884" lon="5.52942">
        <ele>1233.92</ele>
        <time>2018-09-13T13:08:58.000Z</time>
      </trkpt>
      <trkpt lat="45.01895" lon="5.52943">
        <ele>1234</ele>
        <time>2018-09-13T13:09:08.000Z</time>
      </trkpt>
      <trkpt lat="45.01908" lon="5.52945">
        <ele>1234.08</ele>
        <time>2018-09-13T13:09:18.000Z</time>
      </trkpt>
      <trkpt lat="45.01919" lon="5.52947">
        <ele>1234.08</ele>
        <time>2018-09-13T13:09:28.000Z</time>
      </trkpt>
      <trkpt lat="45.01929" lon="5.52948">
        <ele>1234.17</ele>
        <time>2018-09-13T13:09:38.000Z</time>
      </trkpt>
      <trkpt lat="45.01939" lon="5.52948">
        <ele>1234.34</ele>
        <time>2018-09-13T13:09:48.000Z</time>
      </trkpt>
      <trkpt lat="45.01949" lon="5.5295">
        <ele>1234.54</ele>
        <time>2018-09-13T13:09:58.000Z</time>
      </trkpt>
      <trkpt lat="45.01961" lon="5.52949">
        <ele>1234.82</ele>
        <time>2018-09-13T13:10:08.000Z</time>
      </trkpt>
      <trkpt lat="45.01973" lon="5.5295">
        <ele>1234.97</ele>
        <time>2018-09-13T13:10:18.000Z</time>
      </trkpt>
      <trkpt lat="45.01986" lon="5.52951">
        <ele>1234.99</ele>
        <time>2018-09-13T13:10:28.000Z</time>
      </trkpt>
      <trkpt lat="45.01997" lon="5.52948">
        <ele>1234.82</ele>
        <time>2018-09-13T13:10:38.000Z</time>
      </trkpt>
      <trkpt lat="45.02009" lon="5.52947">
        <ele>1234.34</ele>
        <time>2018-09-13T13:10:48.000Z</time>
      </trkpt>
      <trkpt lat="45.02019" lon="5.52941">
        <ele>1233.71</ele>
        <time>2018-09-13T13:10:58.000Z</time>
      </trkpt>
      <trkpt lat="45.02029" lon="5.52928">
        <ele>1232.85</ele>
        <time>2018-09-13T13:11:08.000Z</time>
      </trkpt>
      <trkpt lat="45.02039" lon="5.52917">
        <ele>1231.72</ele>
        <time>2018-09-13T13:11:18.000Z</time>
      </trkpt>
      <trkpt lat="45.02043" lon="5.52899">
        <ele>1230.86</ele>
        <time>2018-09-13T13:11:28.000Z</time>
      </trkpt>
      <trkpt lat="45.02044" lon="5.52883">
        <ele>1230.46</ele>
        <time>2018-09-13T13:11:38.000Z</time>
      </trkpt>
      <trkpt lat="45.02042" lon="5.52871">
        <ele>1230.39</ele>
        <time>2018-09-13T13:11:51.000Z</time>
      </trkpt>
    </trkseg>
  </trk>
</gpx>